<?xml version="1.0" encoding="UTF-8" standalone="no" ?>
<gpx xmlns="http://www.topografix.com/GPX/1/1" xmlns:xsi="http://www.w3.org/2001/XMLSchema-instance" xsi:schemaLocation="http://www.topografix.com/GPX/1/1 http://www.topografix.com/GPX/1/1/gpx.xsd" version="1.1" creator="VisuGPX - https://www.visugpx.com">
  <metadata>
    <name>Le toit de la France à Laubert</name>
    <desc><![CDATA[Balade du samedi de notre weekend dans les Margerides]]></desc>
  </metadata>
  <trk>
    <name><![CDATA[2017-10-07 15:04:21]]></name>
    <trkseg>
      <trkpt lat="44.58404" lon="3.63948">
        <ele>1203.71</ele>
        <time>2017-10-07T07:37:02Z</time>
      </trkpt>
      <trkpt lat="44.58404" lon="3.63948">
        <ele>1203.71</ele>
        <time>2017-10-07T07:37:03Z</time>
      </trkpt>
      <trkpt lat="44.58403" lon="3.63948">
        <ele>1202.75</ele>
        <time>2017-10-07T07:37:35Z</time>
      </trkpt>
      <trkpt lat="44.58403" lon="3.63948">
        <ele>1202.75</ele>
        <time>2017-10-07T07:37:43Z</time>
      </trkpt>
      <trkpt lat="44.58403" lon="3.63947">
        <ele>1204.67</ele>
        <time>2017-10-07T07:37:45Z</time>
      </trkpt>
      <trkpt lat="44.58403" lon="3.63948">
        <ele>1204.67</ele>
        <time>2017-10-07T07:37:46Z</time>
      </trkpt>
      <trkpt lat="44.58403" lon="3.63948">
        <ele>1202.75</ele>
        <time>2017-10-07T07:37:48Z</time>
      </trkpt>
      <trkpt lat="44.58404" lon="3.63946">
        <ele>1204.19</ele>
        <time>2017-10-07T07:37:54Z</time>
      </trkpt>
      <trkpt lat="44.58409" lon="3.63945">
        <ele>1203.71</ele>
        <time>2017-10-07T07:38:11Z</time>
      </trkpt>
      <trkpt lat="44.58409" lon="3.63945">
        <ele>1203.23</ele>
        <time>2017-10-07T07:38:16Z</time>
      </trkpt>
      <trkpt lat="44.58409" lon="3.63945">
        <ele>1200.34</ele>
        <time>2017-10-07T07:38:23Z</time>
      </trkpt>
      <trkpt lat="44.58409" lon="3.63946">
        <ele>1206.59</ele>
        <time>2017-10-07T07:38:24Z</time>
      </trkpt>
      <trkpt lat="44.58409" lon="3.63946">
        <ele>1203.71</ele>
        <time>2017-10-07T07:38:25Z</time>
      </trkpt>
      <trkpt lat="44.58408" lon="3.63946">
        <ele>1204.19</ele>
        <time>2017-10-07T07:38:42Z</time>
      </trkpt>
      <trkpt lat="44.58406" lon="3.63949">
        <ele>1202.75</ele>
        <time>2017-10-07T07:38:53Z</time>
      </trkpt>
      <trkpt lat="44.58404" lon="3.63933">
        <ele>1203.23</ele>
        <time>2017-10-07T07:39:06Z</time>
      </trkpt>
      <trkpt lat="44.584" lon="3.63916">
        <ele>1203.23</ele>
        <time>2017-10-07T07:39:22Z</time>
      </trkpt>
      <trkpt lat="44.58397" lon="3.63911">
        <ele>1201.79</ele>
        <time>2017-10-07T07:39:27Z</time>
      </trkpt>
      <trkpt lat="44.58397" lon="3.6389">
        <ele>1203.71</ele>
        <time>2017-10-07T07:39:44Z</time>
      </trkpt>
      <trkpt lat="44.584" lon="3.63886">
        <ele>1201.3</ele>
        <time>2017-10-07T07:39:49Z</time>
      </trkpt>
      <trkpt lat="44.58403" lon="3.63884">
        <ele>1204.19</ele>
        <time>2017-10-07T07:39:55Z</time>
      </trkpt>
      <trkpt lat="44.58406" lon="3.63885">
        <ele>1200.82</ele>
        <time>2017-10-07T07:40:03Z</time>
      </trkpt>
      <trkpt lat="44.58412" lon="3.63879">
        <ele>1202.75</ele>
        <time>2017-10-07T07:40:11Z</time>
      </trkpt>
      <trkpt lat="44.58414" lon="3.63877">
        <ele>1202.75</ele>
        <time>2017-10-07T07:40:14Z</time>
      </trkpt>
      <trkpt lat="44.58417" lon="3.63875">
        <ele>1201.79</ele>
        <time>2017-10-07T07:40:17Z</time>
      </trkpt>
      <trkpt lat="44.58421" lon="3.63872">
        <ele>1202.75</ele>
        <time>2017-10-07T07:40:21Z</time>
      </trkpt>
      <trkpt lat="44.5843" lon="3.63866">
        <ele>1202.75</ele>
        <time>2017-10-07T07:40:34Z</time>
      </trkpt>
      <trkpt lat="44.58447" lon="3.63857">
        <ele>1202.75</ele>
        <time>2017-10-07T07:40:53Z</time>
      </trkpt>
      <trkpt lat="44.5847" lon="3.63846">
        <ele>1202.75</ele>
        <time>2017-10-07T07:41:12Z</time>
      </trkpt>
      <trkpt lat="44.58497" lon="3.63828">
        <ele>1203.23</ele>
        <time>2017-10-07T07:41:38Z</time>
      </trkpt>
      <trkpt lat="44.58505" lon="3.63821">
        <ele>1201.3</ele>
        <time>2017-10-07T07:41:47Z</time>
      </trkpt>
      <trkpt lat="44.58514" lon="3.63808">
        <ele>1204.19</ele>
        <time>2017-10-07T07:41:59Z</time>
      </trkpt>
      <trkpt lat="44.58524" lon="3.63784">
        <ele>1204.19</ele>
        <time>2017-10-07T07:42:18Z</time>
      </trkpt>
      <trkpt lat="44.58538" lon="3.63755">
        <ele>1205.63</ele>
        <time>2017-10-07T07:42:40Z</time>
      </trkpt>
      <trkpt lat="44.58553" lon="3.6373">
        <ele>1207.07</ele>
        <time>2017-10-07T07:43:02Z</time>
      </trkpt>
      <trkpt lat="44.58572" lon="3.63704">
        <ele>1208.51</ele>
        <time>2017-10-07T07:43:25Z</time>
      </trkpt>
      <trkpt lat="44.58589" lon="3.63687">
        <ele>1210.44</ele>
        <time>2017-10-07T07:43:44Z</time>
      </trkpt>
      <trkpt lat="44.58609" lon="3.63669">
        <ele>1211.88</ele>
        <time>2017-10-07T07:44:07Z</time>
      </trkpt>
      <trkpt lat="44.58622" lon="3.63652">
        <ele>1214.76</ele>
        <time>2017-10-07T07:44:26Z</time>
      </trkpt>
      <trkpt lat="44.58636" lon="3.63635">
        <ele>1216.21</ele>
        <time>2017-10-07T07:44:45Z</time>
      </trkpt>
      <trkpt lat="44.58646" lon="3.63609">
        <ele>1217.65</ele>
        <time>2017-10-07T07:45:06Z</time>
      </trkpt>
      <trkpt lat="44.58654" lon="3.6358">
        <ele>1220.05</ele>
        <time>2017-10-07T07:45:28Z</time>
      </trkpt>
      <trkpt lat="44.58662" lon="3.63555">
        <ele>1221.49</ele>
        <time>2017-10-07T07:45:47Z</time>
      </trkpt>
      <trkpt lat="44.58671" lon="3.63528">
        <ele>1223.42</ele>
        <time>2017-10-07T07:46:08Z</time>
      </trkpt>
      <trkpt lat="44.58683" lon="3.63505">
        <ele>1225.82</ele>
        <time>2017-10-07T07:46:28Z</time>
      </trkpt>
      <trkpt lat="44.58684" lon="3.63503">
        <ele>1226.78</ele>
        <time>2017-10-07T07:46:30Z</time>
      </trkpt>
      <trkpt lat="44.58685" lon="3.63502">
        <ele>1224.86</ele>
        <time>2017-10-07T07:46:32Z</time>
      </trkpt>
      <trkpt lat="44.58688" lon="3.63499">
        <ele>1226.78</ele>
        <time>2017-10-07T07:46:35Z</time>
      </trkpt>
      <trkpt lat="44.58692" lon="3.63487">
        <ele>1226.78</ele>
        <time>2017-10-07T07:46:50Z</time>
      </trkpt>
      <trkpt lat="44.58707" lon="3.63469">
        <ele>1229.18</ele>
        <time>2017-10-07T07:47:10Z</time>
      </trkpt>
      <trkpt lat="44.58719" lon="3.63455">
        <ele>1230.14</ele>
        <time>2017-10-07T07:47:25Z</time>
      </trkpt>
      <trkpt lat="44.58733" lon="3.63439">
        <ele>1231.59</ele>
        <time>2017-10-07T07:47:42Z</time>
      </trkpt>
      <trkpt lat="44.5875" lon="3.63416">
        <ele>1233.51</ele>
        <time>2017-10-07T07:48:03Z</time>
      </trkpt>
      <trkpt lat="44.58767" lon="3.63391">
        <ele>1235.43</ele>
        <time>2017-10-07T07:48:25Z</time>
      </trkpt>
      <trkpt lat="44.5878" lon="3.63376">
        <ele>1236.87</ele>
        <time>2017-10-07T07:48:41Z</time>
      </trkpt>
      <trkpt lat="44.58782" lon="3.63373">
        <ele>1235.91</ele>
        <time>2017-10-07T07:48:44Z</time>
      </trkpt>
      <trkpt lat="44.58787" lon="3.63368">
        <ele>1237.35</ele>
        <time>2017-10-07T07:48:50Z</time>
      </trkpt>
      <trkpt lat="44.58801" lon="3.63352">
        <ele>1239.28</ele>
        <time>2017-10-07T07:49:07Z</time>
      </trkpt>
      <trkpt lat="44.58807" lon="3.63347">
        <ele>1239.76</ele>
        <time>2017-10-07T07:49:23Z</time>
      </trkpt>
      <trkpt lat="44.58807" lon="3.63345">
        <ele>1239.76</ele>
        <time>2017-10-07T07:49:45Z</time>
      </trkpt>
      <trkpt lat="44.58817" lon="3.63336">
        <ele>1239.28</ele>
        <time>2017-10-07T07:50:02Z</time>
      </trkpt>
      <trkpt lat="44.58836" lon="3.63321">
        <ele>1240.24</ele>
        <time>2017-10-07T07:50:22Z</time>
      </trkpt>
      <trkpt lat="44.58852" lon="3.63307">
        <ele>1242.16</ele>
        <time>2017-10-07T07:50:40Z</time>
      </trkpt>
      <trkpt lat="44.58856" lon="3.63303">
        <ele>1242.16</ele>
        <time>2017-10-07T07:50:45Z</time>
      </trkpt>
      <trkpt lat="44.58859" lon="3.633">
        <ele>1242.64</ele>
        <time>2017-10-07T07:50:49Z</time>
      </trkpt>
      <trkpt lat="44.58876" lon="3.63279">
        <ele>1243.6</ele>
        <time>2017-10-07T07:51:09Z</time>
      </trkpt>
      <trkpt lat="44.58889" lon="3.6326">
        <ele>1245.04</ele>
        <time>2017-10-07T07:51:27Z</time>
      </trkpt>
      <trkpt lat="44.58905" lon="3.63242">
        <ele>1246.49</ele>
        <time>2017-10-07T07:51:46Z</time>
      </trkpt>
      <trkpt lat="44.58917" lon="3.63226">
        <ele>1247.93</ele>
        <time>2017-10-07T07:52:01Z</time>
      </trkpt>
      <trkpt lat="44.5893" lon="3.6321">
        <ele>1250.33</ele>
        <time>2017-10-07T07:52:20Z</time>
      </trkpt>
      <trkpt lat="44.58937" lon="3.63201">
        <ele>1250.81</ele>
        <time>2017-10-07T07:52:30Z</time>
      </trkpt>
      <trkpt lat="44.5895" lon="3.63182">
        <ele>1252.25</ele>
        <time>2017-10-07T07:52:48Z</time>
      </trkpt>
      <trkpt lat="44.58963" lon="3.63168">
        <ele>1254.66</ele>
        <time>2017-10-07T07:53:04Z</time>
      </trkpt>
      <trkpt lat="44.58982" lon="3.63153">
        <ele>1255.14</ele>
        <time>2017-10-07T07:53:24Z</time>
      </trkpt>
      <trkpt lat="44.58997" lon="3.63144">
        <ele>1253.7</ele>
        <time>2017-10-07T07:53:40Z</time>
      </trkpt>
      <trkpt lat="44.59015" lon="3.63138">
        <ele>1258.02</ele>
        <time>2017-10-07T07:53:57Z</time>
      </trkpt>
      <trkpt lat="44.59017" lon="3.63138">
        <ele>1258.02</ele>
        <time>2017-10-07T07:53:58Z</time>
      </trkpt>
      <trkpt lat="44.59038" lon="3.63136">
        <ele>1259.46</ele>
        <time>2017-10-07T07:54:19Z</time>
      </trkpt>
      <trkpt lat="44.59058" lon="3.63133">
        <ele>1260.43</ele>
        <time>2017-10-07T07:54:38Z</time>
      </trkpt>
      <trkpt lat="44.59077" lon="3.63133">
        <ele>1260.43</ele>
        <time>2017-10-07T07:54:56Z</time>
      </trkpt>
      <trkpt lat="44.59079" lon="3.63133">
        <ele>1263.79</ele>
        <time>2017-10-07T07:54:58Z</time>
      </trkpt>
      <trkpt lat="44.591" lon="3.63137">
        <ele>1261.87</ele>
        <time>2017-10-07T07:55:18Z</time>
      </trkpt>
      <trkpt lat="44.59103" lon="3.63137">
        <ele>1262.83</ele>
        <time>2017-10-07T07:55:21Z</time>
      </trkpt>
      <trkpt lat="44.5911" lon="3.63139">
        <ele>1261.87</ele>
        <time>2017-10-07T07:55:28Z</time>
      </trkpt>
      <trkpt lat="44.59113" lon="3.6314">
        <ele>1263.79</ele>
        <time>2017-10-07T07:55:31Z</time>
      </trkpt>
      <trkpt lat="44.59133" lon="3.63145">
        <ele>1264.75</ele>
        <time>2017-10-07T07:55:51Z</time>
      </trkpt>
      <trkpt lat="44.59157" lon="3.63145">
        <ele>1266.19</ele>
        <time>2017-10-07T07:56:12Z</time>
      </trkpt>
      <trkpt lat="44.59181" lon="3.63135">
        <ele>1267.16</ele>
        <time>2017-10-07T07:56:34Z</time>
      </trkpt>
      <trkpt lat="44.59199" lon="3.63123">
        <ele>1267.64</ele>
        <time>2017-10-07T07:56:54Z</time>
      </trkpt>
      <trkpt lat="44.59216" lon="3.63113">
        <ele>1268.12</ele>
        <time>2017-10-07T07:57:11Z</time>
      </trkpt>
      <trkpt lat="44.59234" lon="3.63109">
        <ele>1268.12</ele>
        <time>2017-10-07T07:57:31Z</time>
      </trkpt>
      <trkpt lat="44.59233" lon="3.63108">
        <ele>1269.56</ele>
        <time>2017-10-07T07:57:35Z</time>
      </trkpt>
      <trkpt lat="44.59232" lon="3.63111">
        <ele>1269.56</ele>
        <time>2017-10-07T07:58:05Z</time>
      </trkpt>
      <trkpt lat="44.59232" lon="3.63109">
        <ele>1269.56</ele>
        <time>2017-10-07T07:58:25Z</time>
      </trkpt>
      <trkpt lat="44.59231" lon="3.63109">
        <ele>1268.6</ele>
        <time>2017-10-07T07:58:45Z</time>
      </trkpt>
      <trkpt lat="44.59237" lon="3.63106">
        <ele>1268.6</ele>
        <time>2017-10-07T07:59:02Z</time>
      </trkpt>
      <trkpt lat="44.59244" lon="3.63104">
        <ele>1269.08</ele>
        <time>2017-10-07T07:59:09Z</time>
      </trkpt>
      <trkpt lat="44.59261" lon="3.63098">
        <ele>1269.08</ele>
        <time>2017-10-07T07:59:28Z</time>
      </trkpt>
      <trkpt lat="44.5926" lon="3.63096">
        <ele>1269.56</ele>
        <time>2017-10-07T07:59:47Z</time>
      </trkpt>
      <trkpt lat="44.59263" lon="3.63097">
        <ele>1269.56</ele>
        <time>2017-10-07T08:00:03Z</time>
      </trkpt>
      <trkpt lat="44.59271" lon="3.63092">
        <ele>1269.56</ele>
        <time>2017-10-07T08:00:18Z</time>
      </trkpt>
      <trkpt lat="44.5929" lon="3.63088">
        <ele>1269.56</ele>
        <time>2017-10-07T08:00:38Z</time>
      </trkpt>
      <trkpt lat="44.59309" lon="3.63082">
        <ele>1270.52</ele>
        <time>2017-10-07T08:00:56Z</time>
      </trkpt>
      <trkpt lat="44.59324" lon="3.6308">
        <ele>1271</ele>
        <time>2017-10-07T08:01:11Z</time>
      </trkpt>
      <trkpt lat="44.59336" lon="3.6309">
        <ele>1272.44</ele>
        <time>2017-10-07T08:01:28Z</time>
      </trkpt>
      <trkpt lat="44.59349" lon="3.63104">
        <ele>1273.4</ele>
        <time>2017-10-07T08:01:47Z</time>
      </trkpt>
      <trkpt lat="44.59355" lon="3.63111">
        <ele>1273.4</ele>
        <time>2017-10-07T08:01:55Z</time>
      </trkpt>
      <trkpt lat="44.59371" lon="3.63128">
        <ele>1276.29</ele>
        <time>2017-10-07T08:02:15Z</time>
      </trkpt>
      <trkpt lat="44.59392" lon="3.63142">
        <ele>1277.25</ele>
        <time>2017-10-07T08:02:37Z</time>
      </trkpt>
      <trkpt lat="44.594" lon="3.63145">
        <ele>1278.21</ele>
        <time>2017-10-07T08:02:44Z</time>
      </trkpt>
      <trkpt lat="44.59418" lon="3.63155">
        <ele>1279.65</ele>
        <time>2017-10-07T08:03:02Z</time>
      </trkpt>
      <trkpt lat="44.59435" lon="3.63169">
        <ele>1280.61</ele>
        <time>2017-10-07T08:03:21Z</time>
      </trkpt>
      <trkpt lat="44.59456" lon="3.63176">
        <ele>1281.57</ele>
        <time>2017-10-07T08:03:41Z</time>
      </trkpt>
      <trkpt lat="44.59476" lon="3.63168">
        <ele>1282.54</ele>
        <time>2017-10-07T08:04:00Z</time>
      </trkpt>
      <trkpt lat="44.59499" lon="3.63158">
        <ele>1283.02</ele>
        <time>2017-10-07T08:04:19Z</time>
      </trkpt>
      <trkpt lat="44.59519" lon="3.63153">
        <ele>1283.98</ele>
        <time>2017-10-07T08:04:37Z</time>
      </trkpt>
      <trkpt lat="44.59534" lon="3.63165">
        <ele>1285.9</ele>
        <time>2017-10-07T08:04:55Z</time>
      </trkpt>
      <trkpt lat="44.59542" lon="3.63182">
        <ele>1285.9</ele>
        <time>2017-10-07T08:05:10Z</time>
      </trkpt>
      <trkpt lat="44.59552" lon="3.6321">
        <ele>1285.9</ele>
        <time>2017-10-07T08:05:29Z</time>
      </trkpt>
      <trkpt lat="44.59561" lon="3.63237">
        <ele>1285.9</ele>
        <time>2017-10-07T08:05:48Z</time>
      </trkpt>
      <trkpt lat="44.59572" lon="3.63248">
        <ele>1283.5</ele>
        <time>2017-10-07T08:06:03Z</time>
      </trkpt>
      <trkpt lat="44.59574" lon="3.63248">
        <ele>1286.38</ele>
        <time>2017-10-07T08:06:04Z</time>
      </trkpt>
      <trkpt lat="44.5958" lon="3.63244">
        <ele>1286.86</ele>
        <time>2017-10-07T08:06:10Z</time>
      </trkpt>
      <trkpt lat="44.59597" lon="3.63228">
        <ele>1287.82</ele>
        <time>2017-10-07T08:06:27Z</time>
      </trkpt>
      <trkpt lat="44.59612" lon="3.63216">
        <ele>1288.78</ele>
        <time>2017-10-07T08:06:46Z</time>
      </trkpt>
      <trkpt lat="44.59627" lon="3.63201">
        <ele>1289.75</ele>
        <time>2017-10-07T08:07:02Z</time>
      </trkpt>
      <trkpt lat="44.5964" lon="3.63189">
        <ele>1291.67</ele>
        <time>2017-10-07T08:07:18Z</time>
      </trkpt>
      <trkpt lat="44.59656" lon="3.63173">
        <ele>1292.63</ele>
        <time>2017-10-07T08:07:37Z</time>
      </trkpt>
      <trkpt lat="44.59667" lon="3.63158">
        <ele>1294.55</ele>
        <time>2017-10-07T08:07:53Z</time>
      </trkpt>
      <trkpt lat="44.59678" lon="3.63144">
        <ele>1295.03</ele>
        <time>2017-10-07T08:08:10Z</time>
      </trkpt>
      <trkpt lat="44.59685" lon="3.63134">
        <ele>1295.03</ele>
        <time>2017-10-07T08:08:29Z</time>
      </trkpt>
      <trkpt lat="44.59685" lon="3.63128">
        <ele>1295.99</ele>
        <time>2017-10-07T08:08:58Z</time>
      </trkpt>
      <trkpt lat="44.59685" lon="3.63128">
        <ele>1296.48</ele>
        <time>2017-10-07T08:09:17Z</time>
      </trkpt>
      <trkpt lat="44.59684" lon="3.63129">
        <ele>1295.03</ele>
        <time>2017-10-07T08:09:46Z</time>
      </trkpt>
      <trkpt lat="44.59689" lon="3.63125">
        <ele>1294.55</ele>
        <time>2017-10-07T08:10:15Z</time>
      </trkpt>
      <trkpt lat="44.59703" lon="3.63118">
        <ele>1297.44</ele>
        <time>2017-10-07T08:10:33Z</time>
      </trkpt>
      <trkpt lat="44.59723" lon="3.63105">
        <ele>1297.92</ele>
        <time>2017-10-07T08:10:54Z</time>
      </trkpt>
      <trkpt lat="44.59738" lon="3.63091">
        <ele>1298.88</ele>
        <time>2017-10-07T08:11:13Z</time>
      </trkpt>
      <trkpt lat="44.59739" lon="3.63092">
        <ele>1298.88</ele>
        <time>2017-10-07T08:11:17Z</time>
      </trkpt>
      <trkpt lat="44.59747" lon="3.63085">
        <ele>1298.88</ele>
        <time>2017-10-07T08:11:26Z</time>
      </trkpt>
      <trkpt lat="44.59749" lon="3.63082">
        <ele>1298.88</ele>
        <time>2017-10-07T08:11:29Z</time>
      </trkpt>
      <trkpt lat="44.59758" lon="3.63074">
        <ele>1298.88</ele>
        <time>2017-10-07T08:11:38Z</time>
      </trkpt>
      <trkpt lat="44.5976" lon="3.63074">
        <ele>1298.88</ele>
        <time>2017-10-07T08:11:39Z</time>
      </trkpt>
      <trkpt lat="44.59761" lon="3.63074">
        <ele>1298.88</ele>
        <time>2017-10-07T08:11:40Z</time>
      </trkpt>
      <trkpt lat="44.59766" lon="3.63069">
        <ele>1300.32</ele>
        <time>2017-10-07T08:11:45Z</time>
      </trkpt>
      <trkpt lat="44.59769" lon="3.63063">
        <ele>1300.8</ele>
        <time>2017-10-07T08:12:02Z</time>
      </trkpt>
      <trkpt lat="44.59778" lon="3.63056">
        <ele>1300.8</ele>
        <time>2017-10-07T08:12:16Z</time>
      </trkpt>
      <trkpt lat="44.59792" lon="3.63048">
        <ele>1301.28</ele>
        <time>2017-10-07T08:12:33Z</time>
      </trkpt>
      <trkpt lat="44.59813" lon="3.63037">
        <ele>1303.2</ele>
        <time>2017-10-07T08:12:56Z</time>
      </trkpt>
      <trkpt lat="44.59833" lon="3.63026">
        <ele>1303.69</ele>
        <time>2017-10-07T08:13:17Z</time>
      </trkpt>
      <trkpt lat="44.59839" lon="3.63022">
        <ele>1304.65</ele>
        <time>2017-10-07T08:13:34Z</time>
      </trkpt>
      <trkpt lat="44.5984" lon="3.63024">
        <ele>1304.65</ele>
        <time>2017-10-07T08:14:04Z</time>
      </trkpt>
      <trkpt lat="44.59839" lon="3.63023">
        <ele>1305.13</ele>
        <time>2017-10-07T08:14:22Z</time>
      </trkpt>
      <trkpt lat="44.59836" lon="3.63021">
        <ele>1306.57</ele>
        <time>2017-10-07T08:14:43Z</time>
      </trkpt>
      <trkpt lat="44.59838" lon="3.63019">
        <ele>1304.65</ele>
        <time>2017-10-07T08:15:07Z</time>
      </trkpt>
      <trkpt lat="44.59851" lon="3.6301">
        <ele>1305.61</ele>
        <time>2017-10-07T08:15:24Z</time>
      </trkpt>
      <trkpt lat="44.59871" lon="3.62995">
        <ele>1306.09</ele>
        <time>2017-10-07T08:15:46Z</time>
      </trkpt>
      <trkpt lat="44.59884" lon="3.62986">
        <ele>1307.05</ele>
        <time>2017-10-07T08:16:02Z</time>
      </trkpt>
      <trkpt lat="44.5989" lon="3.62982">
        <ele>1305.61</ele>
        <time>2017-10-07T08:16:09Z</time>
      </trkpt>
      <trkpt lat="44.59907" lon="3.62974">
        <ele>1308.97</ele>
        <time>2017-10-07T08:16:26Z</time>
      </trkpt>
      <trkpt lat="44.59924" lon="3.62967">
        <ele>1308.97</ele>
        <time>2017-10-07T08:16:45Z</time>
      </trkpt>
      <trkpt lat="44.59937" lon="3.62963">
        <ele>1308.49</ele>
        <time>2017-10-07T08:16:58Z</time>
      </trkpt>
      <trkpt lat="44.59942" lon="3.62962">
        <ele>1309.45</ele>
        <time>2017-10-07T08:17:03Z</time>
      </trkpt>
      <trkpt lat="44.59963" lon="3.62954">
        <ele>1311.38</ele>
        <time>2017-10-07T08:17:22Z</time>
      </trkpt>
      <trkpt lat="44.59984" lon="3.62943">
        <ele>1313.3</ele>
        <time>2017-10-07T08:17:43Z</time>
      </trkpt>
      <trkpt lat="44.60003" lon="3.62934">
        <ele>1314.26</ele>
        <time>2017-10-07T08:18:02Z</time>
      </trkpt>
      <trkpt lat="44.60021" lon="3.62927">
        <ele>1315.22</ele>
        <time>2017-10-07T08:18:21Z</time>
      </trkpt>
      <trkpt lat="44.60034" lon="3.62921">
        <ele>1314.74</ele>
        <time>2017-10-07T08:18:36Z</time>
      </trkpt>
      <trkpt lat="44.60042" lon="3.62918">
        <ele>1316.18</ele>
        <time>2017-10-07T08:18:45Z</time>
      </trkpt>
      <trkpt lat="44.6006" lon="3.62908">
        <ele>1317.14</ele>
        <time>2017-10-07T08:19:05Z</time>
      </trkpt>
      <trkpt lat="44.60083" lon="3.62896">
        <ele>1318.1</ele>
        <time>2017-10-07T08:19:29Z</time>
      </trkpt>
      <trkpt lat="44.60097" lon="3.62887">
        <ele>1318.1</ele>
        <time>2017-10-07T08:19:44Z</time>
      </trkpt>
      <trkpt lat="44.60117" lon="3.62878">
        <ele>1319.07</ele>
        <time>2017-10-07T08:20:04Z</time>
      </trkpt>
      <trkpt lat="44.60136" lon="3.62863">
        <ele>1320.03</ele>
        <time>2017-10-07T08:20:25Z</time>
      </trkpt>
      <trkpt lat="44.60155" lon="3.62852">
        <ele>1320.99</ele>
        <time>2017-10-07T08:20:44Z</time>
      </trkpt>
      <trkpt lat="44.60175" lon="3.62849">
        <ele>1321.95</ele>
        <time>2017-10-07T08:21:04Z</time>
      </trkpt>
      <trkpt lat="44.6019" lon="3.62847">
        <ele>1323.39</ele>
        <time>2017-10-07T08:21:21Z</time>
      </trkpt>
      <trkpt lat="44.60206" lon="3.62839">
        <ele>1324.83</ele>
        <time>2017-10-07T08:21:39Z</time>
      </trkpt>
      <trkpt lat="44.60223" lon="3.62833">
        <ele>1325.31</ele>
        <time>2017-10-07T08:21:56Z</time>
      </trkpt>
      <trkpt lat="44.60237" lon="3.62823">
        <ele>1326.76</ele>
        <time>2017-10-07T08:22:14Z</time>
      </trkpt>
      <trkpt lat="44.60239" lon="3.62822">
        <ele>1326.76</ele>
        <time>2017-10-07T08:22:16Z</time>
      </trkpt>
      <trkpt lat="44.60248" lon="3.62814">
        <ele>1328.68</ele>
        <time>2017-10-07T08:22:26Z</time>
      </trkpt>
      <trkpt lat="44.60249" lon="3.62814">
        <ele>1326.76</ele>
        <time>2017-10-07T08:22:27Z</time>
      </trkpt>
      <trkpt lat="44.6025" lon="3.62813">
        <ele>1326.76</ele>
        <time>2017-10-07T08:22:28Z</time>
      </trkpt>
      <trkpt lat="44.60266" lon="3.62807">
        <ele>1328.2</ele>
        <time>2017-10-07T08:22:45Z</time>
      </trkpt>
      <trkpt lat="44.60279" lon="3.62801">
        <ele>1329.16</ele>
        <time>2017-10-07T08:22:58Z</time>
      </trkpt>
      <trkpt lat="44.60294" lon="3.62791">
        <ele>1329.16</ele>
        <time>2017-10-07T08:23:13Z</time>
      </trkpt>
      <trkpt lat="44.6031" lon="3.62777">
        <ele>1330.6</ele>
        <time>2017-10-07T08:23:32Z</time>
      </trkpt>
      <trkpt lat="44.6032" lon="3.62758">
        <ele>1330.6</ele>
        <time>2017-10-07T08:23:49Z</time>
      </trkpt>
      <trkpt lat="44.60328" lon="3.62737">
        <ele>1330.6</ele>
        <time>2017-10-07T08:24:05Z</time>
      </trkpt>
      <trkpt lat="44.6033" lon="3.62733">
        <ele>1330.6</ele>
        <time>2017-10-07T08:24:08Z</time>
      </trkpt>
      <trkpt lat="44.60339" lon="3.62717">
        <ele>1330.6</ele>
        <time>2017-10-07T08:24:22Z</time>
      </trkpt>
      <trkpt lat="44.60351" lon="3.62699">
        <ele>1330.6</ele>
        <time>2017-10-07T08:24:38Z</time>
      </trkpt>
      <trkpt lat="44.60363" lon="3.62679">
        <ele>1332.52</ele>
        <time>2017-10-07T08:24:54Z</time>
      </trkpt>
      <trkpt lat="44.60375" lon="3.62661">
        <ele>1332.52</ele>
        <time>2017-10-07T08:25:12Z</time>
      </trkpt>
      <trkpt lat="44.60386" lon="3.6264">
        <ele>1333.97</ele>
        <time>2017-10-07T08:25:31Z</time>
      </trkpt>
      <trkpt lat="44.60392" lon="3.62623">
        <ele>1335.41</ele>
        <time>2017-10-07T08:25:46Z</time>
      </trkpt>
      <trkpt lat="44.60399" lon="3.62601">
        <ele>1336.85</ele>
        <time>2017-10-07T08:26:02Z</time>
      </trkpt>
      <trkpt lat="44.60404" lon="3.62593">
        <ele>1336.85</ele>
        <time>2017-10-07T08:26:17Z</time>
      </trkpt>
      <trkpt lat="44.60409" lon="3.62589">
        <ele>1335.89</ele>
        <time>2017-10-07T08:26:35Z</time>
      </trkpt>
      <trkpt lat="44.6041" lon="3.62589">
        <ele>1335.89</ele>
        <time>2017-10-07T08:26:36Z</time>
      </trkpt>
      <trkpt lat="44.60411" lon="3.62587">
        <ele>1337.33</ele>
        <time>2017-10-07T08:26:39Z</time>
      </trkpt>
      <trkpt lat="44.60412" lon="3.62588">
        <ele>1337.33</ele>
        <time>2017-10-07T08:26:53Z</time>
      </trkpt>
      <trkpt lat="44.60414" lon="3.62586">
        <ele>1340.7</ele>
        <time>2017-10-07T08:27:14Z</time>
      </trkpt>
      <trkpt lat="44.60413" lon="3.62587">
        <ele>1337.33</ele>
        <time>2017-10-07T08:27:18Z</time>
      </trkpt>
      <trkpt lat="44.60416" lon="3.6259">
        <ele>1337.33</ele>
        <time>2017-10-07T08:27:31Z</time>
      </trkpt>
      <trkpt lat="44.60415" lon="3.62596">
        <ele>1337.33</ele>
        <time>2017-10-07T08:27:58Z</time>
      </trkpt>
      <trkpt lat="44.60418" lon="3.62598">
        <ele>1337.33</ele>
        <time>2017-10-07T08:28:22Z</time>
      </trkpt>
      <trkpt lat="44.60422" lon="3.62599">
        <ele>1337.33</ele>
        <time>2017-10-07T08:28:27Z</time>
      </trkpt>
      <trkpt lat="44.60437" lon="3.62603">
        <ele>1338.29</ele>
        <time>2017-10-07T08:28:42Z</time>
      </trkpt>
      <trkpt lat="44.60438" lon="3.62603">
        <ele>1338.29</ele>
        <time>2017-10-07T08:28:43Z</time>
      </trkpt>
      <trkpt lat="44.60453" lon="3.62608">
        <ele>1338.29</ele>
        <time>2017-10-07T08:28:58Z</time>
      </trkpt>
      <trkpt lat="44.60464" lon="3.62612">
        <ele>1340.22</ele>
        <time>2017-10-07T08:29:16Z</time>
      </trkpt>
      <trkpt lat="44.60465" lon="3.62613">
        <ele>1336.85</ele>
        <time>2017-10-07T08:29:19Z</time>
      </trkpt>
      <trkpt lat="44.60465" lon="3.62613">
        <ele>1338.77</ele>
        <time>2017-10-07T08:29:20Z</time>
      </trkpt>
      <trkpt lat="44.60465" lon="3.62612">
        <ele>1343.1</ele>
        <time>2017-10-07T08:29:21Z</time>
      </trkpt>
      <trkpt lat="44.60465" lon="3.62612">
        <ele>1339.73</ele>
        <time>2017-10-07T08:29:22Z</time>
      </trkpt>
      <trkpt lat="44.60465" lon="3.62612">
        <ele>1339.25</ele>
        <time>2017-10-07T08:29:36Z</time>
      </trkpt>
      <trkpt lat="44.60465" lon="3.62612">
        <ele>1340.22</ele>
        <time>2017-10-07T08:29:52Z</time>
      </trkpt>
      <trkpt lat="44.60465" lon="3.62612">
        <ele>1339.25</ele>
        <time>2017-10-07T08:29:54Z</time>
      </trkpt>
      <trkpt lat="44.60465" lon="3.62609">
        <ele>1340.22</ele>
        <time>2017-10-07T08:30:11Z</time>
      </trkpt>
      <trkpt lat="44.60466" lon="3.626">
        <ele>1340.22</ele>
        <time>2017-10-07T08:30:30Z</time>
      </trkpt>
      <trkpt lat="44.60476" lon="3.62579">
        <ele>1340.22</ele>
        <time>2017-10-07T08:30:49Z</time>
      </trkpt>
      <trkpt lat="44.60479" lon="3.62571">
        <ele>1340.7</ele>
        <time>2017-10-07T08:30:56Z</time>
      </trkpt>
      <trkpt lat="44.6048" lon="3.6257">
        <ele>1340.7</ele>
        <time>2017-10-07T08:30:57Z</time>
      </trkpt>
      <trkpt lat="44.60488" lon="3.62548">
        <ele>1341.18</ele>
        <time>2017-10-07T08:31:14Z</time>
      </trkpt>
      <trkpt lat="44.60494" lon="3.62532">
        <ele>1341.18</ele>
        <time>2017-10-07T08:31:26Z</time>
      </trkpt>
      <trkpt lat="44.60502" lon="3.62514">
        <ele>1341.66</ele>
        <time>2017-10-07T08:31:43Z</time>
      </trkpt>
      <trkpt lat="44.60503" lon="3.6251">
        <ele>1342.62</ele>
        <time>2017-10-07T08:31:55Z</time>
      </trkpt>
      <trkpt lat="44.60505" lon="3.6251">
        <ele>1342.62</ele>
        <time>2017-10-07T08:32:07Z</time>
      </trkpt>
      <trkpt lat="44.60512" lon="3.62491">
        <ele>1341.66</ele>
        <time>2017-10-07T08:32:22Z</time>
      </trkpt>
      <trkpt lat="44.60517" lon="3.62478">
        <ele>1343.1</ele>
        <time>2017-10-07T08:32:33Z</time>
      </trkpt>
      <trkpt lat="44.60518" lon="3.62475">
        <ele>1341.66</ele>
        <time>2017-10-07T08:32:35Z</time>
      </trkpt>
      <trkpt lat="44.60525" lon="3.62449">
        <ele>1343.1</ele>
        <time>2017-10-07T08:32:52Z</time>
      </trkpt>
      <trkpt lat="44.60536" lon="3.62424">
        <ele>1345.02</ele>
        <time>2017-10-07T08:33:11Z</time>
      </trkpt>
      <trkpt lat="44.60547" lon="3.62425">
        <ele>1344.06</ele>
        <time>2017-10-07T08:33:23Z</time>
      </trkpt>
      <trkpt lat="44.60549" lon="3.62427">
        <ele>1345.5</ele>
        <time>2017-10-07T08:33:26Z</time>
      </trkpt>
      <trkpt lat="44.60561" lon="3.62437">
        <ele>1348.39</ele>
        <time>2017-10-07T08:33:42Z</time>
      </trkpt>
      <trkpt lat="44.60564" lon="3.62441">
        <ele>1349.83</ele>
        <time>2017-10-07T08:33:47Z</time>
      </trkpt>
      <trkpt lat="44.60568" lon="3.62444">
        <ele>1351.27</ele>
        <time>2017-10-07T08:33:53Z</time>
      </trkpt>
      <trkpt lat="44.60575" lon="3.62451">
        <ele>1351.75</ele>
        <time>2017-10-07T08:34:04Z</time>
      </trkpt>
      <trkpt lat="44.6059" lon="3.62462">
        <ele>1353.67</ele>
        <time>2017-10-07T08:34:21Z</time>
      </trkpt>
      <trkpt lat="44.60605" lon="3.6246">
        <ele>1355.6</ele>
        <time>2017-10-07T08:34:38Z</time>
      </trkpt>
      <trkpt lat="44.60619" lon="3.62447">
        <ele>1357.04</ele>
        <time>2017-10-07T08:34:55Z</time>
      </trkpt>
      <trkpt lat="44.60628" lon="3.62434">
        <ele>1358.48</ele>
        <time>2017-10-07T08:35:11Z</time>
      </trkpt>
      <trkpt lat="44.60629" lon="3.62434">
        <ele>1355.6</ele>
        <time>2017-10-07T08:35:20Z</time>
      </trkpt>
      <trkpt lat="44.60629" lon="3.62433">
        <ele>1360.88</ele>
        <time>2017-10-07T08:35:21Z</time>
      </trkpt>
      <trkpt lat="44.60632" lon="3.6243">
        <ele>1357.52</ele>
        <time>2017-10-07T08:35:26Z</time>
      </trkpt>
      <trkpt lat="44.60634" lon="3.62426">
        <ele>1358.96</ele>
        <time>2017-10-07T08:35:30Z</time>
      </trkpt>
      <trkpt lat="44.60645" lon="3.62411">
        <ele>1359.92</ele>
        <time>2017-10-07T08:35:49Z</time>
      </trkpt>
      <trkpt lat="44.6066" lon="3.62392">
        <ele>1361.84</ele>
        <time>2017-10-07T08:36:09Z</time>
      </trkpt>
      <trkpt lat="44.60664" lon="3.62387">
        <ele>1362.81</ele>
        <time>2017-10-07T08:36:25Z</time>
      </trkpt>
      <trkpt lat="44.60664" lon="3.62387">
        <ele>1362.33</ele>
        <time>2017-10-07T08:36:32Z</time>
      </trkpt>
      <trkpt lat="44.60665" lon="3.62392">
        <ele>1361.36</ele>
        <time>2017-10-07T08:36:54Z</time>
      </trkpt>
      <trkpt lat="44.60665" lon="3.62388">
        <ele>1362.81</ele>
        <time>2017-10-07T08:37:12Z</time>
      </trkpt>
      <trkpt lat="44.60668" lon="3.62389">
        <ele>1363.29</ele>
        <time>2017-10-07T08:37:31Z</time>
      </trkpt>
      <trkpt lat="44.60669" lon="3.62389">
        <ele>1363.29</ele>
        <time>2017-10-07T08:37:43Z</time>
      </trkpt>
      <trkpt lat="44.60667" lon="3.6239">
        <ele>1360.88</ele>
        <time>2017-10-07T08:37:50Z</time>
      </trkpt>
      <trkpt lat="44.60667" lon="3.6239">
        <ele>1364.73</ele>
        <time>2017-10-07T08:37:52Z</time>
      </trkpt>
      <trkpt lat="44.60669" lon="3.62385">
        <ele>1363.29</ele>
        <time>2017-10-07T08:38:03Z</time>
      </trkpt>
      <trkpt lat="44.60682" lon="3.62372">
        <ele>1365.21</ele>
        <time>2017-10-07T08:38:21Z</time>
      </trkpt>
      <trkpt lat="44.60696" lon="3.62355">
        <ele>1366.65</ele>
        <time>2017-10-07T08:38:40Z</time>
      </trkpt>
      <trkpt lat="44.60704" lon="3.6235">
        <ele>1367.13</ele>
        <time>2017-10-07T08:38:55Z</time>
      </trkpt>
      <trkpt lat="44.60709" lon="3.62343">
        <ele>1368.09</ele>
        <time>2017-10-07T08:39:10Z</time>
      </trkpt>
      <trkpt lat="44.6072" lon="3.62333">
        <ele>1369.05</ele>
        <time>2017-10-07T08:39:25Z</time>
      </trkpt>
      <trkpt lat="44.60729" lon="3.62317">
        <ele>1371.46</ele>
        <time>2017-10-07T08:39:43Z</time>
      </trkpt>
      <trkpt lat="44.60743" lon="3.62305">
        <ele>1373.86</ele>
        <time>2017-10-07T08:40:02Z</time>
      </trkpt>
      <trkpt lat="44.60748" lon="3.62305">
        <ele>1374.34</ele>
        <time>2017-10-07T08:40:18Z</time>
      </trkpt>
      <trkpt lat="44.60751" lon="3.62305">
        <ele>1374.82</ele>
        <time>2017-10-07T08:40:37Z</time>
      </trkpt>
      <trkpt lat="44.60761" lon="3.62313">
        <ele>1376.26</ele>
        <time>2017-10-07T08:40:53Z</time>
      </trkpt>
      <trkpt lat="44.60763" lon="3.62321">
        <ele>1377.23</ele>
        <time>2017-10-07T08:41:08Z</time>
      </trkpt>
      <trkpt lat="44.60767" lon="3.62322">
        <ele>1377.23</ele>
        <time>2017-10-07T08:41:28Z</time>
      </trkpt>
      <trkpt lat="44.60772" lon="3.62329">
        <ele>1378.19</ele>
        <time>2017-10-07T08:41:36Z</time>
      </trkpt>
      <trkpt lat="44.60786" lon="3.62339">
        <ele>1380.11</ele>
        <time>2017-10-07T08:41:53Z</time>
      </trkpt>
      <trkpt lat="44.60792" lon="3.62341">
        <ele>1381.07</ele>
        <time>2017-10-07T08:42:06Z</time>
      </trkpt>
      <trkpt lat="44.608" lon="3.6234">
        <ele>1381.55</ele>
        <time>2017-10-07T08:42:22Z</time>
      </trkpt>
      <trkpt lat="44.60801" lon="3.62342">
        <ele>1381.55</ele>
        <time>2017-10-07T08:42:48Z</time>
      </trkpt>
      <trkpt lat="44.60803" lon="3.62339">
        <ele>1382.03</ele>
        <time>2017-10-07T08:43:04Z</time>
      </trkpt>
      <trkpt lat="44.60805" lon="3.62338">
        <ele>1380.59</ele>
        <time>2017-10-07T08:43:09Z</time>
      </trkpt>
      <trkpt lat="44.6081" lon="3.62337">
        <ele>1382.03</ele>
        <time>2017-10-07T08:43:15Z</time>
      </trkpt>
      <trkpt lat="44.60825" lon="3.62332">
        <ele>1383.47</ele>
        <time>2017-10-07T08:43:30Z</time>
      </trkpt>
      <trkpt lat="44.60839" lon="3.62323">
        <ele>1382.99</ele>
        <time>2017-10-07T08:43:46Z</time>
      </trkpt>
      <trkpt lat="44.60839" lon="3.62322">
        <ele>1382.99</ele>
        <time>2017-10-07T08:43:47Z</time>
      </trkpt>
      <trkpt lat="44.60842" lon="3.62319">
        <ele>1384.44</ele>
        <time>2017-10-07T08:43:51Z</time>
      </trkpt>
      <trkpt lat="44.60853" lon="3.62302">
        <ele>1386.84</ele>
        <time>2017-10-07T08:44:08Z</time>
      </trkpt>
      <trkpt lat="44.60859" lon="3.62299">
        <ele>1383.96</ele>
        <time>2017-10-07T08:44:25Z</time>
      </trkpt>
      <trkpt lat="44.60861" lon="3.62299">
        <ele>1389.24</ele>
        <time>2017-10-07T08:44:27Z</time>
      </trkpt>
      <trkpt lat="44.60861" lon="3.62298">
        <ele>1386.36</ele>
        <time>2017-10-07T08:44:28Z</time>
      </trkpt>
      <trkpt lat="44.60863" lon="3.62297">
        <ele>1385.4</ele>
        <time>2017-10-07T08:44:30Z</time>
      </trkpt>
      <trkpt lat="44.60865" lon="3.62296">
        <ele>1386.84</ele>
        <time>2017-10-07T08:44:33Z</time>
      </trkpt>
      <trkpt lat="44.60869" lon="3.62297">
        <ele>1388.76</ele>
        <time>2017-10-07T08:44:38Z</time>
      </trkpt>
      <trkpt lat="44.60883" lon="3.62314">
        <ele>1389.72</ele>
        <time>2017-10-07T08:44:57Z</time>
      </trkpt>
      <trkpt lat="44.60898" lon="3.62338">
        <ele>1391.17</ele>
        <time>2017-10-07T08:45:19Z</time>
      </trkpt>
      <trkpt lat="44.60907" lon="3.62347">
        <ele>1390.2</ele>
        <time>2017-10-07T08:45:30Z</time>
      </trkpt>
      <trkpt lat="44.6091" lon="3.62349">
        <ele>1391.65</ele>
        <time>2017-10-07T08:45:34Z</time>
      </trkpt>
      <trkpt lat="44.60921" lon="3.62353">
        <ele>1390.2</ele>
        <time>2017-10-07T08:45:44Z</time>
      </trkpt>
      <trkpt lat="44.6093" lon="3.62356">
        <ele>1393.09</ele>
        <time>2017-10-07T08:45:51Z</time>
      </trkpt>
      <trkpt lat="44.60935" lon="3.62359">
        <ele>1391.17</ele>
        <time>2017-10-07T08:45:56Z</time>
      </trkpt>
      <trkpt lat="44.60941" lon="3.62362">
        <ele>1393.09</ele>
        <time>2017-10-07T08:46:03Z</time>
      </trkpt>
      <trkpt lat="44.60956" lon="3.62371">
        <ele>1393.57</ele>
        <time>2017-10-07T08:46:20Z</time>
      </trkpt>
      <trkpt lat="44.60961" lon="3.62376">
        <ele>1394.53</ele>
        <time>2017-10-07T08:46:26Z</time>
      </trkpt>
      <trkpt lat="44.60981" lon="3.62394">
        <ele>1395.97</ele>
        <time>2017-10-07T08:46:48Z</time>
      </trkpt>
      <trkpt lat="44.60995" lon="3.62411">
        <ele>1396.93</ele>
        <time>2017-10-07T08:47:06Z</time>
      </trkpt>
      <trkpt lat="44.61008" lon="3.62428">
        <ele>1397.89</ele>
        <time>2017-10-07T08:47:23Z</time>
      </trkpt>
      <trkpt lat="44.61026" lon="3.62444">
        <ele>1398.37</ele>
        <time>2017-10-07T08:47:42Z</time>
      </trkpt>
      <trkpt lat="44.61035" lon="3.62454">
        <ele>1396.93</ele>
        <time>2017-10-07T08:47:57Z</time>
      </trkpt>
      <trkpt lat="44.61043" lon="3.62461">
        <ele>1398.86</ele>
        <time>2017-10-07T08:48:09Z</time>
      </trkpt>
      <trkpt lat="44.61051" lon="3.6247">
        <ele>1398.37</ele>
        <time>2017-10-07T08:48:23Z</time>
      </trkpt>
      <trkpt lat="44.61065" lon="3.62479">
        <ele>1398.37</ele>
        <time>2017-10-07T08:48:40Z</time>
      </trkpt>
      <trkpt lat="44.61066" lon="3.6248">
        <ele>1398.37</ele>
        <time>2017-10-07T08:49:08Z</time>
      </trkpt>
      <trkpt lat="44.61069" lon="3.62481">
        <ele>1397.41</ele>
        <time>2017-10-07T08:49:27Z</time>
      </trkpt>
      <trkpt lat="44.6107" lon="3.62481">
        <ele>1398.37</ele>
        <time>2017-10-07T08:49:42Z</time>
      </trkpt>
      <trkpt lat="44.61072" lon="3.62482">
        <ele>1397.41</ele>
        <time>2017-10-07T08:49:50Z</time>
      </trkpt>
      <trkpt lat="44.61073" lon="3.62481">
        <ele>1398.86</ele>
        <time>2017-10-07T08:49:53Z</time>
      </trkpt>
      <trkpt lat="44.61075" lon="3.62482">
        <ele>1393.57</ele>
        <time>2017-10-07T08:50:03Z</time>
      </trkpt>
      <trkpt lat="44.61076" lon="3.62483">
        <ele>1400.78</ele>
        <time>2017-10-07T08:50:04Z</time>
      </trkpt>
      <trkpt lat="44.61077" lon="3.62483">
        <ele>1396.93</ele>
        <time>2017-10-07T08:50:05Z</time>
      </trkpt>
      <trkpt lat="44.61085" lon="3.62481">
        <ele>1396.45</ele>
        <time>2017-10-07T08:50:13Z</time>
      </trkpt>
      <trkpt lat="44.61098" lon="3.62488">
        <ele>1398.37</ele>
        <time>2017-10-07T08:50:26Z</time>
      </trkpt>
      <trkpt lat="44.61101" lon="3.62491">
        <ele>1396.93</ele>
        <time>2017-10-07T08:50:30Z</time>
      </trkpt>
      <trkpt lat="44.61105" lon="3.62501">
        <ele>1396.93</ele>
        <time>2017-10-07T08:50:40Z</time>
      </trkpt>
      <trkpt lat="44.61105" lon="3.62503">
        <ele>1396.93</ele>
        <time>2017-10-07T08:50:41Z</time>
      </trkpt>
      <trkpt lat="44.61105" lon="3.62538">
        <ele>1395.01</ele>
        <time>2017-10-07T08:51:04Z</time>
      </trkpt>
      <trkpt lat="44.61105" lon="3.62573">
        <ele>1394.53</ele>
        <time>2017-10-07T08:51:45Z</time>
      </trkpt>
      <trkpt lat="44.61105" lon="3.626">
        <ele>1394.05</ele>
        <time>2017-10-07T08:52:02Z</time>
      </trkpt>
      <trkpt lat="44.61105" lon="3.62626">
        <ele>1393.09</ele>
        <time>2017-10-07T08:52:19Z</time>
      </trkpt>
      <trkpt lat="44.61108" lon="3.62657">
        <ele>1391.65</ele>
        <time>2017-10-07T08:52:38Z</time>
      </trkpt>
      <trkpt lat="44.61109" lon="3.62688">
        <ele>1390.68</ele>
        <time>2017-10-07T08:52:57Z</time>
      </trkpt>
      <trkpt lat="44.61107" lon="3.62713">
        <ele>1390.2</ele>
        <time>2017-10-07T08:53:14Z</time>
      </trkpt>
      <trkpt lat="44.61106" lon="3.62742">
        <ele>1389.24</ele>
        <time>2017-10-07T08:53:34Z</time>
      </trkpt>
      <trkpt lat="44.61104" lon="3.62759">
        <ele>1388.76</ele>
        <time>2017-10-07T08:53:48Z</time>
      </trkpt>
      <trkpt lat="44.61104" lon="3.6277">
        <ele>1388.28</ele>
        <time>2017-10-07T08:54:04Z</time>
      </trkpt>
      <trkpt lat="44.61105" lon="3.62768">
        <ele>1388.28</ele>
        <time>2017-10-07T08:54:20Z</time>
      </trkpt>
      <trkpt lat="44.61106" lon="3.6277">
        <ele>1388.28</ele>
        <time>2017-10-07T08:54:40Z</time>
      </trkpt>
      <trkpt lat="44.61104" lon="3.62769">
        <ele>1392.13</ele>
        <time>2017-10-07T08:55:00Z</time>
      </trkpt>
      <trkpt lat="44.61104" lon="3.62769">
        <ele>1388.28</ele>
        <time>2017-10-07T08:55:01Z</time>
      </trkpt>
      <trkpt lat="44.61104" lon="3.62767">
        <ele>1387.8</ele>
        <time>2017-10-07T08:55:16Z</time>
      </trkpt>
      <trkpt lat="44.61104" lon="3.62767">
        <ele>1387.8</ele>
        <time>2017-10-07T08:55:44Z</time>
      </trkpt>
      <trkpt lat="44.61106" lon="3.62764">
        <ele>1387.8</ele>
        <time>2017-10-07T08:56:19Z</time>
      </trkpt>
      <trkpt lat="44.61106" lon="3.62763">
        <ele>1387.32</ele>
        <time>2017-10-07T08:56:47Z</time>
      </trkpt>
      <trkpt lat="44.61105" lon="3.62765">
        <ele>1387.32</ele>
        <time>2017-10-07T08:57:24Z</time>
      </trkpt>
      <trkpt lat="44.61105" lon="3.62765">
        <ele>1387.32</ele>
        <time>2017-10-07T08:57:46Z</time>
      </trkpt>
      <trkpt lat="44.61104" lon="3.62766">
        <ele>1387.32</ele>
        <time>2017-10-07T08:58:23Z</time>
      </trkpt>
      <trkpt lat="44.61105" lon="3.62767">
        <ele>1387.8</ele>
        <time>2017-10-07T08:58:42Z</time>
      </trkpt>
      <trkpt lat="44.61106" lon="3.62768">
        <ele>1388.28</ele>
        <time>2017-10-07T08:59:09Z</time>
      </trkpt>
      <trkpt lat="44.61104" lon="3.62765">
        <ele>1387.8</ele>
        <time>2017-10-07T08:59:26Z</time>
      </trkpt>
      <trkpt lat="44.61105" lon="3.62762">
        <ele>1387.8</ele>
        <time>2017-10-07T08:59:50Z</time>
      </trkpt>
      <trkpt lat="44.61104" lon="3.62763">
        <ele>1388.76</ele>
        <time>2017-10-07T09:00:12Z</time>
      </trkpt>
      <trkpt lat="44.61104" lon="3.62765">
        <ele>1388.76</ele>
        <time>2017-10-07T09:00:35Z</time>
      </trkpt>
      <trkpt lat="44.61104" lon="3.62764">
        <ele>1388.76</ele>
        <time>2017-10-07T09:00:58Z</time>
      </trkpt>
      <trkpt lat="44.61104" lon="3.62766">
        <ele>1388.76</ele>
        <time>2017-10-07T09:01:29Z</time>
      </trkpt>
      <trkpt lat="44.61104" lon="3.62763">
        <ele>1388.76</ele>
        <time>2017-10-07T09:01:53Z</time>
      </trkpt>
      <trkpt lat="44.61104" lon="3.62765">
        <ele>1389.24</ele>
        <time>2017-10-07T09:02:27Z</time>
      </trkpt>
      <trkpt lat="44.611" lon="3.62765">
        <ele>1389.24</ele>
        <time>2017-10-07T09:02:58Z</time>
      </trkpt>
      <trkpt lat="44.61102" lon="3.62764">
        <ele>1389.24</ele>
        <time>2017-10-07T09:03:29Z</time>
      </trkpt>
      <trkpt lat="44.61102" lon="3.62764">
        <ele>1389.24</ele>
        <time>2017-10-07T09:03:55Z</time>
      </trkpt>
      <trkpt lat="44.61103" lon="3.62764">
        <ele>1389.24</ele>
        <time>2017-10-07T09:03:59Z</time>
      </trkpt>
      <trkpt lat="44.61103" lon="3.62762">
        <ele>1389.24</ele>
        <time>2017-10-07T09:04:22Z</time>
      </trkpt>
      <trkpt lat="44.61103" lon="3.62762">
        <ele>1389.72</ele>
        <time>2017-10-07T09:04:51Z</time>
      </trkpt>
      <trkpt lat="44.61103" lon="3.62764">
        <ele>1389.72</ele>
        <time>2017-10-07T09:05:20Z</time>
      </trkpt>
      <trkpt lat="44.61102" lon="3.62764">
        <ele>1389.72</ele>
        <time>2017-10-07T09:05:44Z</time>
      </trkpt>
      <trkpt lat="44.61101" lon="3.62764">
        <ele>1389.72</ele>
        <time>2017-10-07T09:06:11Z</time>
      </trkpt>
      <trkpt lat="44.61101" lon="3.62766">
        <ele>1389.72</ele>
        <time>2017-10-07T09:06:43Z</time>
      </trkpt>
      <trkpt lat="44.61103" lon="3.62767">
        <ele>1389.72</ele>
        <time>2017-10-07T09:07:01Z</time>
      </trkpt>
      <trkpt lat="44.61104" lon="3.62766">
        <ele>1390.2</ele>
        <time>2017-10-07T09:07:22Z</time>
      </trkpt>
      <trkpt lat="44.61102" lon="3.6277">
        <ele>1390.2</ele>
        <time>2017-10-07T09:07:38Z</time>
      </trkpt>
      <trkpt lat="44.61103" lon="3.62776">
        <ele>1390.2</ele>
        <time>2017-10-07T09:07:58Z</time>
      </trkpt>
      <trkpt lat="44.61105" lon="3.62768">
        <ele>1389.72</ele>
        <time>2017-10-07T09:08:11Z</time>
      </trkpt>
      <trkpt lat="44.61106" lon="3.62769">
        <ele>1391.17</ele>
        <time>2017-10-07T09:08:16Z</time>
      </trkpt>
      <trkpt lat="44.61108" lon="3.6277">
        <ele>1387.8</ele>
        <time>2017-10-07T09:08:25Z</time>
      </trkpt>
      <trkpt lat="44.61108" lon="3.62771">
        <ele>1391.17</ele>
        <time>2017-10-07T09:08:26Z</time>
      </trkpt>
      <trkpt lat="44.61105" lon="3.62777">
        <ele>1390.2</ele>
        <time>2017-10-07T09:08:39Z</time>
      </trkpt>
      <trkpt lat="44.61102" lon="3.62787">
        <ele>1389.72</ele>
        <time>2017-10-07T09:08:54Z</time>
      </trkpt>
      <trkpt lat="44.61099" lon="3.62808">
        <ele>1388.76</ele>
        <time>2017-10-07T09:09:11Z</time>
      </trkpt>
      <trkpt lat="44.61096" lon="3.62828">
        <ele>1388.28</ele>
        <time>2017-10-07T09:09:26Z</time>
      </trkpt>
      <trkpt lat="44.61097" lon="3.62833">
        <ele>1388.28</ele>
        <time>2017-10-07T09:09:30Z</time>
      </trkpt>
      <trkpt lat="44.611" lon="3.62852">
        <ele>1387.8</ele>
        <time>2017-10-07T09:09:45Z</time>
      </trkpt>
      <trkpt lat="44.61103" lon="3.62859">
        <ele>1387.32</ele>
        <time>2017-10-07T09:09:52Z</time>
      </trkpt>
      <trkpt lat="44.61104" lon="3.6286">
        <ele>1387.32</ele>
        <time>2017-10-07T09:09:53Z</time>
      </trkpt>
      <trkpt lat="44.61108" lon="3.62881">
        <ele>1386.36</ele>
        <time>2017-10-07T09:10:08Z</time>
      </trkpt>
      <trkpt lat="44.61108" lon="3.62884">
        <ele>1386.36</ele>
        <time>2017-10-07T09:10:10Z</time>
      </trkpt>
      <trkpt lat="44.61104" lon="3.62908">
        <ele>1385.4</ele>
        <time>2017-10-07T09:10:26Z</time>
      </trkpt>
      <trkpt lat="44.61102" lon="3.62938">
        <ele>1385.4</ele>
        <time>2017-10-07T09:10:43Z</time>
      </trkpt>
      <trkpt lat="44.61103" lon="3.62955">
        <ele>1385.4</ele>
        <time>2017-10-07T09:10:54Z</time>
      </trkpt>
      <trkpt lat="44.61107" lon="3.62978">
        <ele>1385.4</ele>
        <time>2017-10-07T09:11:11Z</time>
      </trkpt>
      <trkpt lat="44.61105" lon="3.63007">
        <ele>1385.4</ele>
        <time>2017-10-07T09:11:27Z</time>
      </trkpt>
      <trkpt lat="44.61103" lon="3.63033">
        <ele>1385.4</ele>
        <time>2017-10-07T09:11:43Z</time>
      </trkpt>
      <trkpt lat="44.61102" lon="3.63049">
        <ele>1386.84</ele>
        <time>2017-10-07T09:11:53Z</time>
      </trkpt>
      <trkpt lat="44.61102" lon="3.63051">
        <ele>1386.84</ele>
        <time>2017-10-07T09:11:54Z</time>
      </trkpt>
      <trkpt lat="44.61101" lon="3.6308">
        <ele>1386.84</ele>
        <time>2017-10-07T09:12:12Z</time>
      </trkpt>
      <trkpt lat="44.61097" lon="3.63101">
        <ele>1386.84</ele>
        <time>2017-10-07T09:12:26Z</time>
      </trkpt>
      <trkpt lat="44.61096" lon="3.63129">
        <ele>1386.84</ele>
        <time>2017-10-07T09:12:44Z</time>
      </trkpt>
      <trkpt lat="44.61099" lon="3.63146">
        <ele>1385.88</ele>
        <time>2017-10-07T09:12:58Z</time>
      </trkpt>
      <trkpt lat="44.61099" lon="3.63154">
        <ele>1385.88</ele>
        <time>2017-10-07T09:13:04Z</time>
      </trkpt>
      <trkpt lat="44.61097" lon="3.63177">
        <ele>1385.4</ele>
        <time>2017-10-07T09:13:19Z</time>
      </trkpt>
      <trkpt lat="44.61094" lon="3.63201">
        <ele>1383.96</ele>
        <time>2017-10-07T09:13:35Z</time>
      </trkpt>
      <trkpt lat="44.6109" lon="3.6322">
        <ele>1382.51</ele>
        <time>2017-10-07T09:13:49Z</time>
      </trkpt>
      <trkpt lat="44.61084" lon="3.6324">
        <ele>1381.55</ele>
        <time>2017-10-07T09:14:06Z</time>
      </trkpt>
      <trkpt lat="44.61074" lon="3.63255">
        <ele>1380.11</ele>
        <time>2017-10-07T09:14:20Z</time>
      </trkpt>
      <trkpt lat="44.61064" lon="3.63274">
        <ele>1378.67</ele>
        <time>2017-10-07T09:14:37Z</time>
      </trkpt>
      <trkpt lat="44.61055" lon="3.63294">
        <ele>1377.71</ele>
        <time>2017-10-07T09:14:54Z</time>
      </trkpt>
      <trkpt lat="44.61044" lon="3.63313">
        <ele>1376.75</ele>
        <time>2017-10-07T09:15:11Z</time>
      </trkpt>
      <trkpt lat="44.61033" lon="3.63331">
        <ele>1375.78</ele>
        <time>2017-10-07T09:15:28Z</time>
      </trkpt>
      <trkpt lat="44.61021" lon="3.63352">
        <ele>1374.34</ele>
        <time>2017-10-07T09:15:46Z</time>
      </trkpt>
      <trkpt lat="44.61011" lon="3.63372">
        <ele>1372.9</ele>
        <time>2017-10-07T09:16:03Z</time>
      </trkpt>
      <trkpt lat="44.60996" lon="3.63386">
        <ele>1370.98</ele>
        <time>2017-10-07T09:16:20Z</time>
      </trkpt>
      <trkpt lat="44.60989" lon="3.63395">
        <ele>1369.54</ele>
        <time>2017-10-07T09:16:33Z</time>
      </trkpt>
      <trkpt lat="44.60982" lon="3.63409">
        <ele>1368.57</ele>
        <time>2017-10-07T09:16:48Z</time>
      </trkpt>
      <trkpt lat="44.60979" lon="3.63414">
        <ele>1367.13</ele>
        <time>2017-10-07T09:17:05Z</time>
      </trkpt>
      <trkpt lat="44.60977" lon="3.63415">
        <ele>1367.13</ele>
        <time>2017-10-07T09:17:32Z</time>
      </trkpt>
      <trkpt lat="44.60977" lon="3.63417">
        <ele>1368.09</ele>
        <time>2017-10-07T09:17:52Z</time>
      </trkpt>
      <trkpt lat="44.60974" lon="3.63421">
        <ele>1366.65</ele>
        <time>2017-10-07T09:18:09Z</time>
      </trkpt>
      <trkpt lat="44.60967" lon="3.6343">
        <ele>1367.61</ele>
        <time>2017-10-07T09:18:25Z</time>
      </trkpt>
      <trkpt lat="44.6096" lon="3.63437">
        <ele>1366.65</ele>
        <time>2017-10-07T09:18:38Z</time>
      </trkpt>
      <trkpt lat="44.60951" lon="3.63448">
        <ele>1366.17</ele>
        <time>2017-10-07T09:18:54Z</time>
      </trkpt>
      <trkpt lat="44.60942" lon="3.6346">
        <ele>1364.73</ele>
        <time>2017-10-07T09:19:09Z</time>
      </trkpt>
      <trkpt lat="44.60931" lon="3.63473">
        <ele>1363.29</ele>
        <time>2017-10-07T09:19:24Z</time>
      </trkpt>
      <trkpt lat="44.6092" lon="3.63486">
        <ele>1361.84</ele>
        <time>2017-10-07T09:19:39Z</time>
      </trkpt>
      <trkpt lat="44.60908" lon="3.63499">
        <ele>1360.4</ele>
        <time>2017-10-07T09:19:54Z</time>
      </trkpt>
      <trkpt lat="44.6089" lon="3.63506">
        <ele>1358.48</ele>
        <time>2017-10-07T09:20:11Z</time>
      </trkpt>
      <trkpt lat="44.60877" lon="3.63519">
        <ele>1357.04</ele>
        <time>2017-10-07T09:20:27Z</time>
      </trkpt>
      <trkpt lat="44.60863" lon="3.63521">
        <ele>1356.08</ele>
        <time>2017-10-07T09:20:41Z</time>
      </trkpt>
      <trkpt lat="44.60839" lon="3.63535">
        <ele>1354.15</ele>
        <time>2017-10-07T09:20:59Z</time>
      </trkpt>
      <trkpt lat="44.60822" lon="3.6354">
        <ele>1353.19</ele>
        <time>2017-10-07T09:21:14Z</time>
      </trkpt>
      <trkpt lat="44.60807" lon="3.63547">
        <ele>1352.71</ele>
        <time>2017-10-07T09:21:31Z</time>
      </trkpt>
      <trkpt lat="44.60792" lon="3.63562">
        <ele>1351.75</ele>
        <time>2017-10-07T09:21:49Z</time>
      </trkpt>
      <trkpt lat="44.60777" lon="3.63575">
        <ele>1350.31</ele>
        <time>2017-10-07T09:22:05Z</time>
      </trkpt>
      <trkpt lat="44.60765" lon="3.63588">
        <ele>1349.83</ele>
        <time>2017-10-07T09:22:19Z</time>
      </trkpt>
      <trkpt lat="44.60755" lon="3.63602">
        <ele>1348.87</ele>
        <time>2017-10-07T09:22:33Z</time>
      </trkpt>
      <trkpt lat="44.60745" lon="3.63619">
        <ele>1348.87</ele>
        <time>2017-10-07T09:22:48Z</time>
      </trkpt>
      <trkpt lat="44.60729" lon="3.63636">
        <ele>1347.43</ele>
        <time>2017-10-07T09:23:03Z</time>
      </trkpt>
      <trkpt lat="44.60719" lon="3.63647">
        <ele>1346.94</ele>
        <time>2017-10-07T09:23:18Z</time>
      </trkpt>
      <trkpt lat="44.60709" lon="3.6366">
        <ele>1346.46</ele>
        <time>2017-10-07T09:23:32Z</time>
      </trkpt>
      <trkpt lat="44.60694" lon="3.63678">
        <ele>1345.5</ele>
        <time>2017-10-07T09:23:45Z</time>
      </trkpt>
      <trkpt lat="44.60681" lon="3.63693">
        <ele>1345.02</ele>
        <time>2017-10-07T09:24:00Z</time>
      </trkpt>
      <trkpt lat="44.60676" lon="3.63711">
        <ele>1344.06</ele>
        <time>2017-10-07T09:24:16Z</time>
      </trkpt>
      <trkpt lat="44.60668" lon="3.63736">
        <ele>1343.1</ele>
        <time>2017-10-07T09:24:33Z</time>
      </trkpt>
      <trkpt lat="44.60662" lon="3.63744">
        <ele>1341.66</ele>
        <time>2017-10-07T09:24:44Z</time>
      </trkpt>
      <trkpt lat="44.60661" lon="3.63746">
        <ele>1344.54</ele>
        <time>2017-10-07T09:24:47Z</time>
      </trkpt>
      <trkpt lat="44.6066" lon="3.63747">
        <ele>1340.22</ele>
        <time>2017-10-07T09:24:48Z</time>
      </trkpt>
      <trkpt lat="44.60659" lon="3.63747">
        <ele>1345.5</ele>
        <time>2017-10-07T09:24:49Z</time>
      </trkpt>
      <trkpt lat="44.60647" lon="3.6376">
        <ele>1342.14</ele>
        <time>2017-10-07T09:25:01Z</time>
      </trkpt>
      <trkpt lat="44.60632" lon="3.63786">
        <ele>1340.7</ele>
        <time>2017-10-07T09:25:20Z</time>
      </trkpt>
      <trkpt lat="44.60618" lon="3.63805">
        <ele>1340.7</ele>
        <time>2017-10-07T09:25:35Z</time>
      </trkpt>
      <trkpt lat="44.60608" lon="3.63827">
        <ele>1339.73</ele>
        <time>2017-10-07T09:25:53Z</time>
      </trkpt>
      <trkpt lat="44.60597" lon="3.63842">
        <ele>1338.77</ele>
        <time>2017-10-07T09:26:09Z</time>
      </trkpt>
      <trkpt lat="44.60585" lon="3.63851">
        <ele>1337.81</ele>
        <time>2017-10-07T09:26:26Z</time>
      </trkpt>
      <trkpt lat="44.60572" lon="3.63869">
        <ele>1336.37</ele>
        <time>2017-10-07T09:26:42Z</time>
      </trkpt>
      <trkpt lat="44.60564" lon="3.63888">
        <ele>1335.89</ele>
        <time>2017-10-07T09:26:57Z</time>
      </trkpt>
      <trkpt lat="44.60558" lon="3.63907">
        <ele>1334.93</ele>
        <time>2017-10-07T09:27:11Z</time>
      </trkpt>
      <trkpt lat="44.60547" lon="3.63929">
        <ele>1333.97</ele>
        <time>2017-10-07T09:27:28Z</time>
      </trkpt>
      <trkpt lat="44.60532" lon="3.63949">
        <ele>1333.01</ele>
        <time>2017-10-07T09:27:44Z</time>
      </trkpt>
      <trkpt lat="44.6052" lon="3.63976">
        <ele>1332.04</ele>
        <time>2017-10-07T09:28:02Z</time>
      </trkpt>
      <trkpt lat="44.60517" lon="3.63987">
        <ele>1327.24</ele>
        <time>2017-10-07T09:28:10Z</time>
      </trkpt>
      <trkpt lat="44.60518" lon="3.63987">
        <ele>1336.85</ele>
        <time>2017-10-07T09:28:11Z</time>
      </trkpt>
      <trkpt lat="44.60518" lon="3.63988">
        <ele>1331.56</ele>
        <time>2017-10-07T09:28:12Z</time>
      </trkpt>
      <trkpt lat="44.60516" lon="3.64003">
        <ele>1331.56</ele>
        <time>2017-10-07T09:28:23Z</time>
      </trkpt>
      <trkpt lat="44.60511" lon="3.64026">
        <ele>1331.08</ele>
        <time>2017-10-07T09:28:38Z</time>
      </trkpt>
      <trkpt lat="44.60508" lon="3.64048">
        <ele>1330.6</ele>
        <time>2017-10-07T09:28:53Z</time>
      </trkpt>
      <trkpt lat="44.60505" lon="3.64061">
        <ele>1330.12</ele>
        <time>2017-10-07T09:29:00Z</time>
      </trkpt>
      <trkpt lat="44.60499" lon="3.64088">
        <ele>1329.64</ele>
        <time>2017-10-07T09:29:15Z</time>
      </trkpt>
      <trkpt lat="44.60493" lon="3.64116">
        <ele>1329.64</ele>
        <time>2017-10-07T09:29:32Z</time>
      </trkpt>
      <trkpt lat="44.60491" lon="3.64138">
        <ele>1329.64</ele>
        <time>2017-10-07T09:29:47Z</time>
      </trkpt>
      <trkpt lat="44.60484" lon="3.64162">
        <ele>1328.68</ele>
        <time>2017-10-07T09:30:05Z</time>
      </trkpt>
      <trkpt lat="44.60479" lon="3.64176">
        <ele>1328.2</ele>
        <time>2017-10-07T09:30:20Z</time>
      </trkpt>
      <trkpt lat="44.60471" lon="3.64197">
        <ele>1328.2</ele>
        <time>2017-10-07T09:30:35Z</time>
      </trkpt>
      <trkpt lat="44.60465" lon="3.64217">
        <ele>1328.68</ele>
        <time>2017-10-07T09:30:50Z</time>
      </trkpt>
      <trkpt lat="44.60459" lon="3.64238">
        <ele>1328.68</ele>
        <time>2017-10-07T09:31:06Z</time>
      </trkpt>
      <trkpt lat="44.6045" lon="3.64261">
        <ele>1328.68</ele>
        <time>2017-10-07T09:31:23Z</time>
      </trkpt>
      <trkpt lat="44.60444" lon="3.64273">
        <ele>1328.2</ele>
        <time>2017-10-07T09:31:36Z</time>
      </trkpt>
      <trkpt lat="44.60434" lon="3.64286">
        <ele>1327.72</ele>
        <time>2017-10-07T09:31:49Z</time>
      </trkpt>
      <trkpt lat="44.60423" lon="3.64309">
        <ele>1327.24</ele>
        <time>2017-10-07T09:32:06Z</time>
      </trkpt>
      <trkpt lat="44.60417" lon="3.6432">
        <ele>1326.28</ele>
        <time>2017-10-07T09:32:23Z</time>
      </trkpt>
      <trkpt lat="44.60418" lon="3.64323">
        <ele>1325.8</ele>
        <time>2017-10-07T09:32:43Z</time>
      </trkpt>
      <trkpt lat="44.60416" lon="3.64322">
        <ele>1325.8</ele>
        <time>2017-10-07T09:33:00Z</time>
      </trkpt>
      <trkpt lat="44.60417" lon="3.64322">
        <ele>1326.76</ele>
        <time>2017-10-07T09:33:11Z</time>
      </trkpt>
      <trkpt lat="44.60416" lon="3.64323">
        <ele>1325.31</ele>
        <time>2017-10-07T09:33:30Z</time>
      </trkpt>
      <trkpt lat="44.60416" lon="3.64323">
        <ele>1329.16</ele>
        <time>2017-10-07T09:33:34Z</time>
      </trkpt>
      <trkpt lat="44.60415" lon="3.64324">
        <ele>1325.8</ele>
        <time>2017-10-07T09:33:39Z</time>
      </trkpt>
      <trkpt lat="44.60415" lon="3.64326">
        <ele>1325.8</ele>
        <time>2017-10-07T09:34:04Z</time>
      </trkpt>
      <trkpt lat="44.60416" lon="3.64321">
        <ele>1325.31</ele>
        <time>2017-10-07T09:34:24Z</time>
      </trkpt>
      <trkpt lat="44.60414" lon="3.64323">
        <ele>1325.31</ele>
        <time>2017-10-07T09:34:47Z</time>
      </trkpt>
      <trkpt lat="44.60412" lon="3.64319">
        <ele>1325.8</ele>
        <time>2017-10-07T09:35:08Z</time>
      </trkpt>
      <trkpt lat="44.60408" lon="3.64311">
        <ele>1325.8</ele>
        <time>2017-10-07T09:35:32Z</time>
      </trkpt>
      <trkpt lat="44.60406" lon="3.64329">
        <ele>1325.31</ele>
        <time>2017-10-07T09:35:49Z</time>
      </trkpt>
      <trkpt lat="44.60404" lon="3.64328">
        <ele>1325.31</ele>
        <time>2017-10-07T09:36:04Z</time>
      </trkpt>
      <trkpt lat="44.60401" lon="3.64329">
        <ele>1325.31</ele>
        <time>2017-10-07T09:36:30Z</time>
      </trkpt>
      <trkpt lat="44.604" lon="3.64329">
        <ele>1325.8</ele>
        <time>2017-10-07T09:36:56Z</time>
      </trkpt>
      <trkpt lat="44.60398" lon="3.64335">
        <ele>1325.8</ele>
        <time>2017-10-07T09:37:19Z</time>
      </trkpt>
      <trkpt lat="44.60394" lon="3.64345">
        <ele>1325.8</ele>
        <time>2017-10-07T09:37:34Z</time>
      </trkpt>
      <trkpt lat="44.60393" lon="3.64359">
        <ele>1325.31</ele>
        <time>2017-10-07T09:37:50Z</time>
      </trkpt>
      <trkpt lat="44.60387" lon="3.64378">
        <ele>1325.31</ele>
        <time>2017-10-07T09:38:12Z</time>
      </trkpt>
      <trkpt lat="44.60382" lon="3.64398">
        <ele>1325.31</ele>
        <time>2017-10-07T09:38:29Z</time>
      </trkpt>
      <trkpt lat="44.60376" lon="3.64419">
        <ele>1325.31</ele>
        <time>2017-10-07T09:38:45Z</time>
      </trkpt>
      <trkpt lat="44.60372" lon="3.64438">
        <ele>1325.31</ele>
        <time>2017-10-07T09:39:00Z</time>
      </trkpt>
      <trkpt lat="44.60369" lon="3.64462">
        <ele>1324.35</ele>
        <time>2017-10-07T09:39:18Z</time>
      </trkpt>
      <trkpt lat="44.60364" lon="3.64484">
        <ele>1324.35</ele>
        <time>2017-10-07T09:39:32Z</time>
      </trkpt>
      <trkpt lat="44.60361" lon="3.64503">
        <ele>1323.39</ele>
        <time>2017-10-07T09:39:46Z</time>
      </trkpt>
      <trkpt lat="44.60355" lon="3.6452">
        <ele>1322.91</ele>
        <time>2017-10-07T09:40:01Z</time>
      </trkpt>
      <trkpt lat="44.60351" lon="3.64538">
        <ele>1322.43</ele>
        <time>2017-10-07T09:40:15Z</time>
      </trkpt>
      <trkpt lat="44.60347" lon="3.64562">
        <ele>1321.47</ele>
        <time>2017-10-07T09:40:30Z</time>
      </trkpt>
      <trkpt lat="44.6034" lon="3.64588">
        <ele>1320.99</ele>
        <time>2017-10-07T09:40:47Z</time>
      </trkpt>
      <trkpt lat="44.6034" lon="3.64599">
        <ele>1320.51</ele>
        <time>2017-10-07T09:40:52Z</time>
      </trkpt>
      <trkpt lat="44.60335" lon="3.64624">
        <ele>1320.03</ele>
        <time>2017-10-07T09:41:09Z</time>
      </trkpt>
      <trkpt lat="44.60336" lon="3.64643">
        <ele>1319.07</ele>
        <time>2017-10-07T09:41:22Z</time>
      </trkpt>
      <trkpt lat="44.60331" lon="3.64668">
        <ele>1318.59</ele>
        <time>2017-10-07T09:41:39Z</time>
      </trkpt>
      <trkpt lat="44.60328" lon="3.64687">
        <ele>1318.59</ele>
        <time>2017-10-07T09:41:49Z</time>
      </trkpt>
      <trkpt lat="44.60328" lon="3.64713">
        <ele>1317.14</ele>
        <time>2017-10-07T09:42:07Z</time>
      </trkpt>
      <trkpt lat="44.60325" lon="3.64733">
        <ele>1316.18</ele>
        <time>2017-10-07T09:42:22Z</time>
      </trkpt>
      <trkpt lat="44.60325" lon="3.64753">
        <ele>1315.22</ele>
        <time>2017-10-07T09:42:37Z</time>
      </trkpt>
      <trkpt lat="44.60325" lon="3.64773">
        <ele>1313.78</ele>
        <time>2017-10-07T09:42:52Z</time>
      </trkpt>
      <trkpt lat="44.60325" lon="3.64798">
        <ele>1312.34</ele>
        <time>2017-10-07T09:43:09Z</time>
      </trkpt>
      <trkpt lat="44.60331" lon="3.64816">
        <ele>1310.9</ele>
        <time>2017-10-07T09:43:21Z</time>
      </trkpt>
      <trkpt lat="44.60331" lon="3.64817">
        <ele>1310.41</ele>
        <time>2017-10-07T09:43:22Z</time>
      </trkpt>
      <trkpt lat="44.60335" lon="3.6484">
        <ele>1309.45</ele>
        <time>2017-10-07T09:43:39Z</time>
      </trkpt>
      <trkpt lat="44.60336" lon="3.64858">
        <ele>1308.01</ele>
        <time>2017-10-07T09:43:51Z</time>
      </trkpt>
      <trkpt lat="44.60341" lon="3.64885">
        <ele>1306.57</ele>
        <time>2017-10-07T09:44:07Z</time>
      </trkpt>
      <trkpt lat="44.60346" lon="3.64902">
        <ele>1305.13</ele>
        <time>2017-10-07T09:44:22Z</time>
      </trkpt>
      <trkpt lat="44.60352" lon="3.64925">
        <ele>1303.2</ele>
        <time>2017-10-07T09:44:39Z</time>
      </trkpt>
      <trkpt lat="44.60357" lon="3.64949">
        <ele>1300.8</ele>
        <time>2017-10-07T09:44:56Z</time>
      </trkpt>
      <trkpt lat="44.60366" lon="3.6497">
        <ele>1298.4</ele>
        <time>2017-10-07T09:45:12Z</time>
      </trkpt>
      <trkpt lat="44.60375" lon="3.64985">
        <ele>1298.4</ele>
        <time>2017-10-07T09:45:24Z</time>
      </trkpt>
      <trkpt lat="44.60388" lon="3.65006">
        <ele>1297.44</ele>
        <time>2017-10-07T09:45:41Z</time>
      </trkpt>
      <trkpt lat="44.60399" lon="3.65031">
        <ele>1296.96</ele>
        <time>2017-10-07T09:45:59Z</time>
      </trkpt>
      <trkpt lat="44.60411" lon="3.65052">
        <ele>1296.48</ele>
        <time>2017-10-07T09:46:18Z</time>
      </trkpt>
      <trkpt lat="44.60417" lon="3.65059">
        <ele>1295.99</ele>
        <time>2017-10-07T09:46:32Z</time>
      </trkpt>
      <trkpt lat="44.60419" lon="3.6506">
        <ele>1295.99</ele>
        <time>2017-10-07T09:46:51Z</time>
      </trkpt>
      <trkpt lat="44.60422" lon="3.6506">
        <ele>1299.84</ele>
        <time>2017-10-07T09:47:05Z</time>
      </trkpt>
      <trkpt lat="44.60422" lon="3.6506">
        <ele>1296.96</ele>
        <time>2017-10-07T09:47:06Z</time>
      </trkpt>
      <trkpt lat="44.60433" lon="3.65074">
        <ele>1296.48</ele>
        <time>2017-10-07T09:47:23Z</time>
      </trkpt>
      <trkpt lat="44.60449" lon="3.65087">
        <ele>1296.48</ele>
        <time>2017-10-07T09:47:42Z</time>
      </trkpt>
      <trkpt lat="44.60454" lon="3.6509">
        <ele>1296.48</ele>
        <time>2017-10-07T09:47:47Z</time>
      </trkpt>
      <trkpt lat="44.60461" lon="3.65094">
        <ele>1297.92</ele>
        <time>2017-10-07T09:47:54Z</time>
      </trkpt>
      <trkpt lat="44.60463" lon="3.65094">
        <ele>1297.92</ele>
        <time>2017-10-07T09:47:55Z</time>
      </trkpt>
      <trkpt lat="44.60476" lon="3.65104">
        <ele>1296.48</ele>
        <time>2017-10-07T09:48:09Z</time>
      </trkpt>
      <trkpt lat="44.60488" lon="3.65115">
        <ele>1295.03</ele>
        <time>2017-10-07T09:48:25Z</time>
      </trkpt>
      <trkpt lat="44.60499" lon="3.65124">
        <ele>1294.07</ele>
        <time>2017-10-07T09:48:40Z</time>
      </trkpt>
      <trkpt lat="44.60517" lon="3.65133">
        <ele>1292.63</ele>
        <time>2017-10-07T09:48:59Z</time>
      </trkpt>
      <trkpt lat="44.60522" lon="3.65136">
        <ele>1292.15</ele>
        <time>2017-10-07T09:49:04Z</time>
      </trkpt>
      <trkpt lat="44.60533" lon="3.65148">
        <ele>1290.71</ele>
        <time>2017-10-07T09:49:19Z</time>
      </trkpt>
      <trkpt lat="44.60541" lon="3.65162">
        <ele>1289.27</ele>
        <time>2017-10-07T09:49:32Z</time>
      </trkpt>
      <trkpt lat="44.60541" lon="3.65164">
        <ele>1289.27</ele>
        <time>2017-10-07T09:49:33Z</time>
      </trkpt>
      <trkpt lat="44.60545" lon="3.65173">
        <ele>1288.78</ele>
        <time>2017-10-07T09:49:41Z</time>
      </trkpt>
      <trkpt lat="44.60551" lon="3.65184">
        <ele>1287.82</ele>
        <time>2017-10-07T09:49:51Z</time>
      </trkpt>
      <trkpt lat="44.60568" lon="3.65193">
        <ele>1287.34</ele>
        <time>2017-10-07T09:50:08Z</time>
      </trkpt>
      <trkpt lat="44.60577" lon="3.65196">
        <ele>1288.3</ele>
        <time>2017-10-07T09:50:22Z</time>
      </trkpt>
      <trkpt lat="44.60578" lon="3.65197">
        <ele>1287.34</ele>
        <time>2017-10-07T09:50:36Z</time>
      </trkpt>
      <trkpt lat="44.60579" lon="3.65196">
        <ele>1286.86</ele>
        <time>2017-10-07T09:50:55Z</time>
      </trkpt>
      <trkpt lat="44.60579" lon="3.65195">
        <ele>1287.34</ele>
        <time>2017-10-07T09:51:20Z</time>
      </trkpt>
      <trkpt lat="44.60579" lon="3.65196">
        <ele>1288.78</ele>
        <time>2017-10-07T09:51:25Z</time>
      </trkpt>
      <trkpt lat="44.60574" lon="3.65195">
        <ele>1287.34</ele>
        <time>2017-10-07T09:51:33Z</time>
      </trkpt>
      <trkpt lat="44.60562" lon="3.65194">
        <ele>1287.34</ele>
        <time>2017-10-07T09:51:49Z</time>
      </trkpt>
      <trkpt lat="44.60557" lon="3.65196">
        <ele>1286.86</ele>
        <time>2017-10-07T09:52:03Z</time>
      </trkpt>
      <trkpt lat="44.60557" lon="3.65196">
        <ele>1288.3</ele>
        <time>2017-10-07T09:52:09Z</time>
      </trkpt>
      <trkpt lat="44.60556" lon="3.65197">
        <ele>1284.46</ele>
        <time>2017-10-07T09:52:32Z</time>
      </trkpt>
      <trkpt lat="44.60556" lon="3.65197">
        <ele>1289.75</ele>
        <time>2017-10-07T09:52:33Z</time>
      </trkpt>
      <trkpt lat="44.60556" lon="3.65197">
        <ele>1288.3</ele>
        <time>2017-10-07T09:52:36Z</time>
      </trkpt>
      <trkpt lat="44.60554" lon="3.65205">
        <ele>1287.82</ele>
        <time>2017-10-07T09:52:59Z</time>
      </trkpt>
      <trkpt lat="44.60557" lon="3.65206">
        <ele>1287.82</ele>
        <time>2017-10-07T09:53:15Z</time>
      </trkpt>
      <trkpt lat="44.6056" lon="3.65213">
        <ele>1287.82</ele>
        <time>2017-10-07T09:53:30Z</time>
      </trkpt>
      <trkpt lat="44.60564" lon="3.65237">
        <ele>1286.86</ele>
        <time>2017-10-07T09:53:50Z</time>
      </trkpt>
      <trkpt lat="44.60566" lon="3.65254">
        <ele>1285.9</ele>
        <time>2017-10-07T09:54:06Z</time>
      </trkpt>
      <trkpt lat="44.60568" lon="3.65267">
        <ele>1285.42</ele>
        <time>2017-10-07T09:54:19Z</time>
      </trkpt>
      <trkpt lat="44.60569" lon="3.6527">
        <ele>1284.94</ele>
        <time>2017-10-07T09:54:35Z</time>
      </trkpt>
      <trkpt lat="44.6057" lon="3.65272">
        <ele>1284.46</ele>
        <time>2017-10-07T09:54:56Z</time>
      </trkpt>
      <trkpt lat="44.60565" lon="3.65276">
        <ele>1284.94</ele>
        <time>2017-10-07T09:55:11Z</time>
      </trkpt>
      <trkpt lat="44.60564" lon="3.65279">
        <ele>1286.38</ele>
        <time>2017-10-07T09:55:15Z</time>
      </trkpt>
      <trkpt lat="44.6056" lon="3.65284">
        <ele>1286.38</ele>
        <time>2017-10-07T09:55:24Z</time>
      </trkpt>
      <trkpt lat="44.60564" lon="3.65277">
        <ele>1286.38</ele>
        <time>2017-10-07T09:55:30Z</time>
      </trkpt>
      <trkpt lat="44.60564" lon="3.65276">
        <ele>1286.38</ele>
        <time>2017-10-07T09:55:31Z</time>
      </trkpt>
      <trkpt lat="44.60565" lon="3.65274">
        <ele>1286.38</ele>
        <time>2017-10-07T09:55:32Z</time>
      </trkpt>
      <trkpt lat="44.60566" lon="3.65273">
        <ele>1286.38</ele>
        <time>2017-10-07T09:55:33Z</time>
      </trkpt>
      <trkpt lat="44.60572" lon="3.65273">
        <ele>1284.94</ele>
        <time>2017-10-07T09:55:43Z</time>
      </trkpt>
      <trkpt lat="44.60575" lon="3.65273">
        <ele>1284.46</ele>
        <time>2017-10-07T09:55:47Z</time>
      </trkpt>
      <trkpt lat="44.60576" lon="3.65273">
        <ele>1283.98</ele>
        <time>2017-10-07T09:55:58Z</time>
      </trkpt>
      <trkpt lat="44.60572" lon="3.65272">
        <ele>1285.42</ele>
        <time>2017-10-07T09:56:06Z</time>
      </trkpt>
      <trkpt lat="44.60568" lon="3.65267">
        <ele>1285.42</ele>
        <time>2017-10-07T09:56:16Z</time>
      </trkpt>
      <trkpt lat="44.60568" lon="3.65265">
        <ele>1285.42</ele>
        <time>2017-10-07T09:56:17Z</time>
      </trkpt>
      <trkpt lat="44.60567" lon="3.65264">
        <ele>1285.42</ele>
        <time>2017-10-07T09:56:18Z</time>
      </trkpt>
      <trkpt lat="44.60568" lon="3.65262">
        <ele>1285.42</ele>
        <time>2017-10-07T09:56:19Z</time>
      </trkpt>
      <trkpt lat="44.60567" lon="3.65247">
        <ele>1286.38</ele>
        <time>2017-10-07T09:56:32Z</time>
      </trkpt>
      <trkpt lat="44.60564" lon="3.65234">
        <ele>1286.86</ele>
        <time>2017-10-07T09:56:46Z</time>
      </trkpt>
      <trkpt lat="44.60562" lon="3.65222">
        <ele>1287.34</ele>
        <time>2017-10-07T09:57:00Z</time>
      </trkpt>
      <trkpt lat="44.6056" lon="3.65211">
        <ele>1287.82</ele>
        <time>2017-10-07T09:57:13Z</time>
      </trkpt>
      <trkpt lat="44.60558" lon="3.65208">
        <ele>1287.82</ele>
        <time>2017-10-07T09:57:16Z</time>
      </trkpt>
      <trkpt lat="44.60559" lon="3.65195">
        <ele>1288.3</ele>
        <time>2017-10-07T09:57:28Z</time>
      </trkpt>
      <trkpt lat="44.60561" lon="3.65193">
        <ele>1290.71</ele>
        <time>2017-10-07T09:57:39Z</time>
      </trkpt>
      <trkpt lat="44.60563" lon="3.65194">
        <ele>1288.78</ele>
        <time>2017-10-07T09:57:44Z</time>
      </trkpt>
      <trkpt lat="44.60577" lon="3.65195">
        <ele>1288.3</ele>
        <time>2017-10-07T09:57:57Z</time>
      </trkpt>
      <trkpt lat="44.60586" lon="3.65206">
        <ele>1288.3</ele>
        <time>2017-10-07T09:58:09Z</time>
      </trkpt>
      <trkpt lat="44.60593" lon="3.65237">
        <ele>1285.9</ele>
        <time>2017-10-07T09:58:30Z</time>
      </trkpt>
      <trkpt lat="44.60602" lon="3.65257">
        <ele>1285.42</ele>
        <time>2017-10-07T09:58:47Z</time>
      </trkpt>
      <trkpt lat="44.60613" lon="3.6527">
        <ele>1283.5</ele>
        <time>2017-10-07T09:59:01Z</time>
      </trkpt>
      <trkpt lat="44.60629" lon="3.65286">
        <ele>1282.06</ele>
        <time>2017-10-07T09:59:20Z</time>
      </trkpt>
      <trkpt lat="44.60639" lon="3.65299">
        <ele>1281.57</ele>
        <time>2017-10-07T09:59:38Z</time>
      </trkpt>
      <trkpt lat="44.60647" lon="3.65307">
        <ele>1281.09</ele>
        <time>2017-10-07T09:59:53Z</time>
      </trkpt>
      <trkpt lat="44.6066" lon="3.65333">
        <ele>1278.69</ele>
        <time>2017-10-07T10:00:14Z</time>
      </trkpt>
      <trkpt lat="44.60666" lon="3.65362">
        <ele>1277.25</ele>
        <time>2017-10-07T10:00:33Z</time>
      </trkpt>
      <trkpt lat="44.60671" lon="3.65394">
        <ele>1275.81</ele>
        <time>2017-10-07T10:00:54Z</time>
      </trkpt>
      <trkpt lat="44.60683" lon="3.65416">
        <ele>1274.36</ele>
        <time>2017-10-07T10:01:14Z</time>
      </trkpt>
      <trkpt lat="44.60689" lon="3.65427">
        <ele>1273.4</ele>
        <time>2017-10-07T10:01:26Z</time>
      </trkpt>
      <trkpt lat="44.60696" lon="3.65437">
        <ele>1273.4</ele>
        <time>2017-10-07T10:01:35Z</time>
      </trkpt>
      <trkpt lat="44.60706" lon="3.65456">
        <ele>1271</ele>
        <time>2017-10-07T10:01:51Z</time>
      </trkpt>
      <trkpt lat="44.60719" lon="3.65479">
        <ele>1269.08</ele>
        <time>2017-10-07T10:02:10Z</time>
      </trkpt>
      <trkpt lat="44.60734" lon="3.65512">
        <ele>1267.64</ele>
        <time>2017-10-07T10:02:36Z</time>
      </trkpt>
      <trkpt lat="44.60745" lon="3.65536">
        <ele>1266.67</ele>
        <time>2017-10-07T10:02:56Z</time>
      </trkpt>
      <trkpt lat="44.60746" lon="3.65537">
        <ele>1266.67</ele>
        <time>2017-10-07T10:02:57Z</time>
      </trkpt>
      <trkpt lat="44.60763" lon="3.65547">
        <ele>1263.31</ele>
        <time>2017-10-07T10:03:14Z</time>
      </trkpt>
      <trkpt lat="44.60779" lon="3.65548">
        <ele>1261.87</ele>
        <time>2017-10-07T10:03:29Z</time>
      </trkpt>
      <trkpt lat="44.60799" lon="3.65544">
        <ele>1261.39</ele>
        <time>2017-10-07T10:03:47Z</time>
      </trkpt>
      <trkpt lat="44.60823" lon="3.65536">
        <ele>1259.46</ele>
        <time>2017-10-07T10:04:09Z</time>
      </trkpt>
      <trkpt lat="44.60849" lon="3.65527">
        <ele>1257.54</ele>
        <time>2017-10-07T10:04:32Z</time>
      </trkpt>
      <trkpt lat="44.60873" lon="3.65517">
        <ele>1255.62</ele>
        <time>2017-10-07T10:04:55Z</time>
      </trkpt>
      <trkpt lat="44.60892" lon="3.6551">
        <ele>1255.14</ele>
        <time>2017-10-07T10:05:13Z</time>
      </trkpt>
      <trkpt lat="44.60912" lon="3.6551">
        <ele>1253.22</ele>
        <time>2017-10-07T10:05:33Z</time>
      </trkpt>
      <trkpt lat="44.60933" lon="3.65514">
        <ele>1251.77</ele>
        <time>2017-10-07T10:05:54Z</time>
      </trkpt>
      <trkpt lat="44.60954" lon="3.65518">
        <ele>1250.81</ele>
        <time>2017-10-07T10:06:14Z</time>
      </trkpt>
      <trkpt lat="44.60977" lon="3.65526">
        <ele>1248.41</ele>
        <time>2017-10-07T10:06:36Z</time>
      </trkpt>
      <trkpt lat="44.60989" lon="3.65539">
        <ele>1248.41</ele>
        <time>2017-10-07T10:06:56Z</time>
      </trkpt>
      <trkpt lat="44.60992" lon="3.65551">
        <ele>1248.41</ele>
        <time>2017-10-07T10:07:09Z</time>
      </trkpt>
      <trkpt lat="44.60993" lon="3.65552">
        <ele>1248.41</ele>
        <time>2017-10-07T10:07:10Z</time>
      </trkpt>
      <trkpt lat="44.60993" lon="3.65583">
        <ele>1246.97</ele>
        <time>2017-10-07T10:07:30Z</time>
      </trkpt>
      <trkpt lat="44.60991" lon="3.65589">
        <ele>1246.97</ele>
        <time>2017-10-07T10:07:39Z</time>
      </trkpt>
      <trkpt lat="44.60973" lon="3.65609">
        <ele>1246.01</ele>
        <time>2017-10-07T10:08:00Z</time>
      </trkpt>
      <trkpt lat="44.60956" lon="3.65627">
        <ele>1245.04</ele>
        <time>2017-10-07T10:08:20Z</time>
      </trkpt>
      <trkpt lat="44.60938" lon="3.65652">
        <ele>1243.12</ele>
        <time>2017-10-07T10:08:45Z</time>
      </trkpt>
      <trkpt lat="44.60924" lon="3.65676">
        <ele>1242.64</ele>
        <time>2017-10-07T10:09:06Z</time>
      </trkpt>
      <trkpt lat="44.6091" lon="3.65705">
        <ele>1241.68</ele>
        <time>2017-10-07T10:09:28Z</time>
      </trkpt>
      <trkpt lat="44.60904" lon="3.65725">
        <ele>1241.68</ele>
        <time>2017-10-07T10:09:46Z</time>
      </trkpt>
      <trkpt lat="44.60908" lon="3.65728">
        <ele>1241.68</ele>
        <time>2017-10-07T10:10:04Z</time>
      </trkpt>
      <trkpt lat="44.60907" lon="3.65726">
        <ele>1241.68</ele>
        <time>2017-10-07T10:10:22Z</time>
      </trkpt>
      <trkpt lat="44.60907" lon="3.65724">
        <ele>1241.68</ele>
        <time>2017-10-07T10:10:40Z</time>
      </trkpt>
      <trkpt lat="44.60909" lon="3.65725">
        <ele>1241.68</ele>
        <time>2017-10-07T10:11:04Z</time>
      </trkpt>
      <trkpt lat="44.60909" lon="3.65724">
        <ele>1243.12</ele>
        <time>2017-10-07T10:11:19Z</time>
      </trkpt>
      <trkpt lat="44.60907" lon="3.65723">
        <ele>1241.68</ele>
        <time>2017-10-07T10:11:43Z</time>
      </trkpt>
      <trkpt lat="44.60908" lon="3.65725">
        <ele>1241.68</ele>
        <time>2017-10-07T10:12:01Z</time>
      </trkpt>
      <trkpt lat="44.60908" lon="3.65726">
        <ele>1242.16</ele>
        <time>2017-10-07T10:12:20Z</time>
      </trkpt>
      <trkpt lat="44.60909" lon="3.65718">
        <ele>1242.16</ele>
        <time>2017-10-07T10:12:34Z</time>
      </trkpt>
      <trkpt lat="44.60909" lon="3.65719">
        <ele>1242.16</ele>
        <time>2017-10-07T10:13:00Z</time>
      </trkpt>
      <trkpt lat="44.60906" lon="3.65721">
        <ele>1242.16</ele>
        <time>2017-10-07T10:13:11Z</time>
      </trkpt>
      <trkpt lat="44.60906" lon="3.65727">
        <ele>1242.16</ele>
        <time>2017-10-07T10:13:24Z</time>
      </trkpt>
      <trkpt lat="44.60907" lon="3.65726">
        <ele>1242.16</ele>
        <time>2017-10-07T10:13:47Z</time>
      </trkpt>
      <trkpt lat="44.6091" lon="3.65728">
        <ele>1242.16</ele>
        <time>2017-10-07T10:14:03Z</time>
      </trkpt>
      <trkpt lat="44.60912" lon="3.6573">
        <ele>1242.16</ele>
        <time>2017-10-07T10:14:18Z</time>
      </trkpt>
      <trkpt lat="44.60911" lon="3.6573">
        <ele>1242.16</ele>
        <time>2017-10-07T10:14:48Z</time>
      </trkpt>
      <trkpt lat="44.60911" lon="3.65728">
        <ele>1243.12</ele>
        <time>2017-10-07T10:15:06Z</time>
      </trkpt>
      <trkpt lat="44.60911" lon="3.65734">
        <ele>1243.12</ele>
        <time>2017-10-07T10:15:22Z</time>
      </trkpt>
      <trkpt lat="44.60909" lon="3.65735">
        <ele>1242.16</ele>
        <time>2017-10-07T10:15:42Z</time>
      </trkpt>
      <trkpt lat="44.60907" lon="3.65733">
        <ele>1241.68</ele>
        <time>2017-10-07T10:16:18Z</time>
      </trkpt>
      <trkpt lat="44.60907" lon="3.65732">
        <ele>1241.68</ele>
        <time>2017-10-07T10:16:46Z</time>
      </trkpt>
      <trkpt lat="44.60906" lon="3.65733">
        <ele>1242.16</ele>
        <time>2017-10-07T10:17:15Z</time>
      </trkpt>
      <trkpt lat="44.60906" lon="3.65733">
        <ele>1242.16</ele>
        <time>2017-10-07T10:17:40Z</time>
      </trkpt>
      <trkpt lat="44.60906" lon="3.65732">
        <ele>1242.16</ele>
        <time>2017-10-07T10:18:08Z</time>
      </trkpt>
      <trkpt lat="44.60907" lon="3.65732">
        <ele>1242.16</ele>
        <time>2017-10-07T10:18:34Z</time>
      </trkpt>
      <trkpt lat="44.60907" lon="3.65732">
        <ele>1242.64</ele>
        <time>2017-10-07T10:18:52Z</time>
      </trkpt>
      <trkpt lat="44.60907" lon="3.65732">
        <ele>1242.64</ele>
        <time>2017-10-07T10:19:18Z</time>
      </trkpt>
      <trkpt lat="44.60908" lon="3.65732">
        <ele>1242.64</ele>
        <time>2017-10-07T10:19:46Z</time>
      </trkpt>
      <trkpt lat="44.60907" lon="3.65733">
        <ele>1244.08</ele>
        <time>2017-10-07T10:20:06Z</time>
      </trkpt>
      <trkpt lat="44.60909" lon="3.65732">
        <ele>1244.08</ele>
        <time>2017-10-07T10:20:33Z</time>
      </trkpt>
      <trkpt lat="44.60908" lon="3.65732">
        <ele>1244.08</ele>
        <time>2017-10-07T10:21:04Z</time>
      </trkpt>
      <trkpt lat="44.60907" lon="3.65733">
        <ele>1244.56</ele>
        <time>2017-10-07T10:21:36Z</time>
      </trkpt>
      <trkpt lat="44.60908" lon="3.65732">
        <ele>1244.56</ele>
        <time>2017-10-07T10:22:04Z</time>
      </trkpt>
      <trkpt lat="44.60907" lon="3.65734">
        <ele>1244.56</ele>
        <time>2017-10-07T10:22:28Z</time>
      </trkpt>
      <trkpt lat="44.60907" lon="3.65734">
        <ele>1244.56</ele>
        <time>2017-10-07T10:22:48Z</time>
      </trkpt>
      <trkpt lat="44.60907" lon="3.65735">
        <ele>1244.56</ele>
        <time>2017-10-07T10:23:13Z</time>
      </trkpt>
      <trkpt lat="44.60906" lon="3.65732">
        <ele>1245.04</ele>
        <time>2017-10-07T10:23:45Z</time>
      </trkpt>
      <trkpt lat="44.60906" lon="3.65733">
        <ele>1245.53</ele>
        <time>2017-10-07T10:24:16Z</time>
      </trkpt>
      <trkpt lat="44.60907" lon="3.65732">
        <ele>1245.53</ele>
        <time>2017-10-07T10:24:41Z</time>
      </trkpt>
      <trkpt lat="44.60908" lon="3.65734">
        <ele>1245.53</ele>
        <time>2017-10-07T10:25:10Z</time>
      </trkpt>
      <trkpt lat="44.60908" lon="3.65731">
        <ele>1245.53</ele>
        <time>2017-10-07T10:25:40Z</time>
      </trkpt>
      <trkpt lat="44.60907" lon="3.65732">
        <ele>1245.53</ele>
        <time>2017-10-07T10:26:09Z</time>
      </trkpt>
      <trkpt lat="44.60909" lon="3.65732">
        <ele>1245.53</ele>
        <time>2017-10-07T10:26:38Z</time>
      </trkpt>
      <trkpt lat="44.60907" lon="3.65733">
        <ele>1246.01</ele>
        <time>2017-10-07T10:27:06Z</time>
      </trkpt>
      <trkpt lat="44.60908" lon="3.65731">
        <ele>1246.01</ele>
        <time>2017-10-07T10:27:31Z</time>
      </trkpt>
      <trkpt lat="44.60907" lon="3.65732">
        <ele>1246.01</ele>
        <time>2017-10-07T10:27:55Z</time>
      </trkpt>
      <trkpt lat="44.60908" lon="3.65731">
        <ele>1246.01</ele>
        <time>2017-10-07T10:28:20Z</time>
      </trkpt>
      <trkpt lat="44.60908" lon="3.65733">
        <ele>1246.01</ele>
        <time>2017-10-07T10:28:48Z</time>
      </trkpt>
      <trkpt lat="44.60906" lon="3.65733">
        <ele>1246.01</ele>
        <time>2017-10-07T10:29:15Z</time>
      </trkpt>
      <trkpt lat="44.60907" lon="3.65733">
        <ele>1246.01</ele>
        <time>2017-10-07T10:29:48Z</time>
      </trkpt>
      <trkpt lat="44.60907" lon="3.65734">
        <ele>1246.01</ele>
        <time>2017-10-07T10:30:17Z</time>
      </trkpt>
      <trkpt lat="44.60906" lon="3.65733">
        <ele>1246.01</ele>
        <time>2017-10-07T10:30:51Z</time>
      </trkpt>
      <trkpt lat="44.60909" lon="3.65734">
        <ele>1246.01</ele>
        <time>2017-10-07T10:31:18Z</time>
      </trkpt>
      <trkpt lat="44.60908" lon="3.65732">
        <ele>1246.49</ele>
        <time>2017-10-07T10:31:44Z</time>
      </trkpt>
      <trkpt lat="44.60908" lon="3.65731">
        <ele>1246.49</ele>
        <time>2017-10-07T10:32:05Z</time>
      </trkpt>
      <trkpt lat="44.60908" lon="3.65731">
        <ele>1246.49</ele>
        <time>2017-10-07T10:32:27Z</time>
      </trkpt>
      <trkpt lat="44.6091" lon="3.6573">
        <ele>1246.49</ele>
        <time>2017-10-07T10:33:02Z</time>
      </trkpt>
      <trkpt lat="44.60908" lon="3.65733">
        <ele>1246.49</ele>
        <time>2017-10-07T10:33:30Z</time>
      </trkpt>
      <trkpt lat="44.60906" lon="3.65732">
        <ele>1246.49</ele>
        <time>2017-10-07T10:34:08Z</time>
      </trkpt>
      <trkpt lat="44.60907" lon="3.65732">
        <ele>1246.49</ele>
        <time>2017-10-07T10:34:41Z</time>
      </trkpt>
      <trkpt lat="44.60908" lon="3.65732">
        <ele>1246.97</ele>
        <time>2017-10-07T10:35:02Z</time>
      </trkpt>
      <trkpt lat="44.60908" lon="3.65733">
        <ele>1246.97</ele>
        <time>2017-10-07T10:35:28Z</time>
      </trkpt>
      <trkpt lat="44.60909" lon="3.65731">
        <ele>1246.97</ele>
        <time>2017-10-07T10:35:56Z</time>
      </trkpt>
      <trkpt lat="44.60908" lon="3.65734">
        <ele>1246.97</ele>
        <time>2017-10-07T10:36:23Z</time>
      </trkpt>
      <trkpt lat="44.60907" lon="3.65735">
        <ele>1246.97</ele>
        <time>2017-10-07T10:37:00Z</time>
      </trkpt>
      <trkpt lat="44.60906" lon="3.65733">
        <ele>1246.97</ele>
        <time>2017-10-07T10:37:33Z</time>
      </trkpt>
      <trkpt lat="44.60904" lon="3.65733">
        <ele>1246.97</ele>
        <time>2017-10-07T10:38:02Z</time>
      </trkpt>
      <trkpt lat="44.60904" lon="3.65733">
        <ele>1246.97</ele>
        <time>2017-10-07T10:38:30Z</time>
      </trkpt>
      <trkpt lat="44.60906" lon="3.65734">
        <ele>1246.97</ele>
        <time>2017-10-07T10:38:53Z</time>
      </trkpt>
      <trkpt lat="44.60906" lon="3.65735">
        <ele>1247.45</ele>
        <time>2017-10-07T10:39:16Z</time>
      </trkpt>
      <trkpt lat="44.60905" lon="3.65736">
        <ele>1247.45</ele>
        <time>2017-10-07T10:39:48Z</time>
      </trkpt>
      <trkpt lat="44.60906" lon="3.65736">
        <ele>1247.45</ele>
        <time>2017-10-07T10:40:19Z</time>
      </trkpt>
      <trkpt lat="44.60906" lon="3.65733">
        <ele>1247.45</ele>
        <time>2017-10-07T10:40:48Z</time>
      </trkpt>
      <trkpt lat="44.60907" lon="3.65731">
        <ele>1247.45</ele>
        <time>2017-10-07T10:41:17Z</time>
      </trkpt>
      <trkpt lat="44.60907" lon="3.65733">
        <ele>1247.45</ele>
        <time>2017-10-07T10:41:50Z</time>
      </trkpt>
      <trkpt lat="44.60907" lon="3.65734">
        <ele>1247.45</ele>
        <time>2017-10-07T10:42:16Z</time>
      </trkpt>
      <trkpt lat="44.60906" lon="3.65733">
        <ele>1247.45</ele>
        <time>2017-10-07T10:42:44Z</time>
      </trkpt>
      <trkpt lat="44.60907" lon="3.65731">
        <ele>1247.45</ele>
        <time>2017-10-07T10:43:14Z</time>
      </trkpt>
      <trkpt lat="44.60907" lon="3.65734">
        <ele>1247.45</ele>
        <time>2017-10-07T10:43:51Z</time>
      </trkpt>
      <trkpt lat="44.60906" lon="3.65734">
        <ele>1246.97</ele>
        <time>2017-10-07T10:44:20Z</time>
      </trkpt>
      <trkpt lat="44.60907" lon="3.65732">
        <ele>1246.97</ele>
        <time>2017-10-07T10:44:55Z</time>
      </trkpt>
      <trkpt lat="44.60908" lon="3.65731">
        <ele>1246.97</ele>
        <time>2017-10-07T10:45:31Z</time>
      </trkpt>
      <trkpt lat="44.60907" lon="3.65731">
        <ele>1246.97</ele>
        <time>2017-10-07T10:46:07Z</time>
      </trkpt>
      <trkpt lat="44.60907" lon="3.65732">
        <ele>1246.97</ele>
        <time>2017-10-07T10:46:32Z</time>
      </trkpt>
      <trkpt lat="44.60906" lon="3.65733">
        <ele>1246.97</ele>
        <time>2017-10-07T10:46:55Z</time>
      </trkpt>
      <trkpt lat="44.60908" lon="3.65733">
        <ele>1246.97</ele>
        <time>2017-10-07T10:47:12Z</time>
      </trkpt>
      <trkpt lat="44.60909" lon="3.65732">
        <ele>1246.97</ele>
        <time>2017-10-07T10:47:39Z</time>
      </trkpt>
      <trkpt lat="44.60908" lon="3.65731">
        <ele>1246.97</ele>
        <time>2017-10-07T10:48:04Z</time>
      </trkpt>
      <trkpt lat="44.60908" lon="3.65733">
        <ele>1246.97</ele>
        <time>2017-10-07T10:48:35Z</time>
      </trkpt>
      <trkpt lat="44.60908" lon="3.65732">
        <ele>1246.97</ele>
        <time>2017-10-07T10:49:08Z</time>
      </trkpt>
      <trkpt lat="44.60909" lon="3.65732">
        <ele>1246.97</ele>
        <time>2017-10-07T10:49:43Z</time>
      </trkpt>
      <trkpt lat="44.60908" lon="3.65731">
        <ele>1246.97</ele>
        <time>2017-10-07T10:50:06Z</time>
      </trkpt>
      <trkpt lat="44.60909" lon="3.65731">
        <ele>1246.97</ele>
        <time>2017-10-07T10:50:33Z</time>
      </trkpt>
      <trkpt lat="44.60907" lon="3.65733">
        <ele>1246.97</ele>
        <time>2017-10-07T10:51:00Z</time>
      </trkpt>
      <trkpt lat="44.60909" lon="3.65731">
        <ele>1246.97</ele>
        <time>2017-10-07T10:51:28Z</time>
      </trkpt>
      <trkpt lat="44.60908" lon="3.65732">
        <ele>1246.97</ele>
        <time>2017-10-07T10:51:59Z</time>
      </trkpt>
      <trkpt lat="44.60909" lon="3.65732">
        <ele>1246.97</ele>
        <time>2017-10-07T10:52:24Z</time>
      </trkpt>
      <trkpt lat="44.60909" lon="3.65732">
        <ele>1246.97</ele>
        <time>2017-10-07T10:52:49Z</time>
      </trkpt>
      <trkpt lat="44.60908" lon="3.65732">
        <ele>1246.97</ele>
        <time>2017-10-07T10:53:21Z</time>
      </trkpt>
      <trkpt lat="44.60907" lon="3.6573">
        <ele>1246.97</ele>
        <time>2017-10-07T10:53:53Z</time>
      </trkpt>
      <trkpt lat="44.60909" lon="3.65732">
        <ele>1246.97</ele>
        <time>2017-10-07T10:54:13Z</time>
      </trkpt>
      <trkpt lat="44.6091" lon="3.65732">
        <ele>1247.45</ele>
        <time>2017-10-07T10:54:44Z</time>
      </trkpt>
      <trkpt lat="44.60911" lon="3.65731">
        <ele>1248.41</ele>
        <time>2017-10-07T10:55:00Z</time>
      </trkpt>
      <trkpt lat="44.60911" lon="3.65733">
        <ele>1248.89</ele>
        <time>2017-10-07T10:55:22Z</time>
      </trkpt>
      <trkpt lat="44.60911" lon="3.65734">
        <ele>1247.45</ele>
        <time>2017-10-07T10:55:43Z</time>
      </trkpt>
      <trkpt lat="44.60911" lon="3.65734">
        <ele>1248.89</ele>
        <time>2017-10-07T10:55:51Z</time>
      </trkpt>
      <trkpt lat="44.6091" lon="3.65734">
        <ele>1248.41</ele>
        <time>2017-10-07T10:56:25Z</time>
      </trkpt>
      <trkpt lat="44.60909" lon="3.65734">
        <ele>1247.45</ele>
        <time>2017-10-07T10:56:47Z</time>
      </trkpt>
      <trkpt lat="44.60907" lon="3.65733">
        <ele>1247.45</ele>
        <time>2017-10-07T10:57:21Z</time>
      </trkpt>
      <trkpt lat="44.60909" lon="3.65735">
        <ele>1247.45</ele>
        <time>2017-10-07T10:57:57Z</time>
      </trkpt>
      <trkpt lat="44.60912" lon="3.65735">
        <ele>1247.45</ele>
        <time>2017-10-07T10:58:32Z</time>
      </trkpt>
      <trkpt lat="44.60914" lon="3.65732">
        <ele>1247.45</ele>
        <time>2017-10-07T10:59:02Z</time>
      </trkpt>
      <trkpt lat="44.60912" lon="3.65729">
        <ele>1247.45</ele>
        <time>2017-10-07T10:59:39Z</time>
      </trkpt>
      <trkpt lat="44.60908" lon="3.65731">
        <ele>1247.45</ele>
        <time>2017-10-07T11:00:12Z</time>
      </trkpt>
      <trkpt lat="44.60917" lon="3.65729">
        <ele>1246.97</ele>
        <time>2017-10-07T11:00:45Z</time>
      </trkpt>
      <trkpt lat="44.60914" lon="3.65732">
        <ele>1246.97</ele>
        <time>2017-10-07T11:01:16Z</time>
      </trkpt>
      <trkpt lat="44.60918" lon="3.6573">
        <ele>1246.97</ele>
        <time>2017-10-07T11:01:43Z</time>
      </trkpt>
      <trkpt lat="44.60917" lon="3.65727">
        <ele>1246.97</ele>
        <time>2017-10-07T11:02:10Z</time>
      </trkpt>
      <trkpt lat="44.60912" lon="3.6573">
        <ele>1246.97</ele>
        <time>2017-10-07T11:02:40Z</time>
      </trkpt>
      <trkpt lat="44.6091" lon="3.6573">
        <ele>1246.97</ele>
        <time>2017-10-07T11:03:12Z</time>
      </trkpt>
      <trkpt lat="44.60912" lon="3.65732">
        <ele>1246.97</ele>
        <time>2017-10-07T11:03:47Z</time>
      </trkpt>
      <trkpt lat="44.60911" lon="3.65734">
        <ele>1247.93</ele>
        <time>2017-10-07T11:04:15Z</time>
      </trkpt>
      <trkpt lat="44.6091" lon="3.65734">
        <ele>1247.93</ele>
        <time>2017-10-07T11:04:37Z</time>
      </trkpt>
      <trkpt lat="44.60913" lon="3.65733">
        <ele>1247.93</ele>
        <time>2017-10-07T11:05:05Z</time>
      </trkpt>
      <trkpt lat="44.6091" lon="3.65731">
        <ele>1247.93</ele>
        <time>2017-10-07T11:05:25Z</time>
      </trkpt>
      <trkpt lat="44.60912" lon="3.6573">
        <ele>1247.93</ele>
        <time>2017-10-07T11:06:00Z</time>
      </trkpt>
      <trkpt lat="44.60912" lon="3.65731">
        <ele>1247.93</ele>
        <time>2017-10-07T11:06:46Z</time>
      </trkpt>
      <trkpt lat="44.60913" lon="3.65731">
        <ele>1247.93</ele>
        <time>2017-10-07T11:07:34Z</time>
      </trkpt>
      <trkpt lat="44.60911" lon="3.65734">
        <ele>1248.89</ele>
        <time>2017-10-07T11:08:00Z</time>
      </trkpt>
      <trkpt lat="44.6091" lon="3.65733">
        <ele>1248.89</ele>
        <time>2017-10-07T11:08:12Z</time>
      </trkpt>
      <trkpt lat="44.6091" lon="3.65733">
        <ele>1248.89</ele>
        <time>2017-10-07T11:08:35Z</time>
      </trkpt>
      <trkpt lat="44.60909" lon="3.65732">
        <ele>1249.37</ele>
        <time>2017-10-07T11:08:58Z</time>
      </trkpt>
      <trkpt lat="44.6091" lon="3.65731">
        <ele>1249.85</ele>
        <time>2017-10-07T11:09:12Z</time>
      </trkpt>
      <trkpt lat="44.60912" lon="3.65731">
        <ele>1249.85</ele>
        <time>2017-10-07T11:09:38Z</time>
      </trkpt>
      <trkpt lat="44.60909" lon="3.65729">
        <ele>1249.37</ele>
        <time>2017-10-07T11:10:01Z</time>
      </trkpt>
      <trkpt lat="44.60904" lon="3.65728">
        <ele>1248.41</ele>
        <time>2017-10-07T11:10:15Z</time>
      </trkpt>
      <trkpt lat="44.60902" lon="3.65725">
        <ele>1248.41</ele>
        <time>2017-10-07T11:10:29Z</time>
      </trkpt>
      <trkpt lat="44.609" lon="3.65726">
        <ele>1248.41</ele>
        <time>2017-10-07T11:10:50Z</time>
      </trkpt>
      <trkpt lat="44.60892" lon="3.65747">
        <ele>1248.41</ele>
        <time>2017-10-07T11:11:09Z</time>
      </trkpt>
      <trkpt lat="44.60881" lon="3.65774">
        <ele>1247.45</ele>
        <time>2017-10-07T11:11:31Z</time>
      </trkpt>
      <trkpt lat="44.60869" lon="3.65802">
        <ele>1246.49</ele>
        <time>2017-10-07T11:11:53Z</time>
      </trkpt>
      <trkpt lat="44.60861" lon="3.65828">
        <ele>1245.53</ele>
        <time>2017-10-07T11:12:12Z</time>
      </trkpt>
      <trkpt lat="44.60855" lon="3.65839">
        <ele>1245.04</ele>
        <time>2017-10-07T11:12:22Z</time>
      </trkpt>
      <trkpt lat="44.60854" lon="3.65845">
        <ele>1245.04</ele>
        <time>2017-10-07T11:12:38Z</time>
      </trkpt>
      <trkpt lat="44.60855" lon="3.65849">
        <ele>1244.56</ele>
        <time>2017-10-07T11:13:06Z</time>
      </trkpt>
      <trkpt lat="44.60846" lon="3.65861">
        <ele>1244.56</ele>
        <time>2017-10-07T11:13:26Z</time>
      </trkpt>
      <trkpt lat="44.6083" lon="3.65885">
        <ele>1243.6</ele>
        <time>2017-10-07T11:13:49Z</time>
      </trkpt>
      <trkpt lat="44.60814" lon="3.659">
        <ele>1243.6</ele>
        <time>2017-10-07T11:14:08Z</time>
      </trkpt>
      <trkpt lat="44.60798" lon="3.65913">
        <ele>1242.64</ele>
        <time>2017-10-07T11:14:28Z</time>
      </trkpt>
      <trkpt lat="44.60778" lon="3.65934">
        <ele>1241.68</ele>
        <time>2017-10-07T11:14:52Z</time>
      </trkpt>
      <trkpt lat="44.6076" lon="3.65957">
        <ele>1240.72</ele>
        <time>2017-10-07T11:15:15Z</time>
      </trkpt>
      <trkpt lat="44.60744" lon="3.65979">
        <ele>1240.24</ele>
        <time>2017-10-07T11:15:36Z</time>
      </trkpt>
      <trkpt lat="44.60727" lon="3.66009">
        <ele>1239.28</ele>
        <time>2017-10-07T11:16:01Z</time>
      </trkpt>
      <trkpt lat="44.60713" lon="3.66038">
        <ele>1238.8</ele>
        <time>2017-10-07T11:16:24Z</time>
      </trkpt>
      <trkpt lat="44.60697" lon="3.66069">
        <ele>1237.83</ele>
        <time>2017-10-07T11:16:49Z</time>
      </trkpt>
      <trkpt lat="44.60675" lon="3.6609">
        <ele>1236.87</ele>
        <time>2017-10-07T11:17:13Z</time>
      </trkpt>
      <trkpt lat="44.60654" lon="3.66104">
        <ele>1235.91</ele>
        <time>2017-10-07T11:17:37Z</time>
      </trkpt>
      <trkpt lat="44.60632" lon="3.66118">
        <ele>1234.95</ele>
        <time>2017-10-07T11:17:59Z</time>
      </trkpt>
      <trkpt lat="44.60611" lon="3.66133">
        <ele>1234.47</ele>
        <time>2017-10-07T11:18:20Z</time>
      </trkpt>
      <trkpt lat="44.60587" lon="3.66156">
        <ele>1233.51</ele>
        <time>2017-10-07T11:18:46Z</time>
      </trkpt>
      <trkpt lat="44.60568" lon="3.66178">
        <ele>1232.07</ele>
        <time>2017-10-07T11:19:07Z</time>
      </trkpt>
      <trkpt lat="44.60553" lon="3.66198">
        <ele>1231.59</ele>
        <time>2017-10-07T11:19:26Z</time>
      </trkpt>
      <trkpt lat="44.60534" lon="3.66217">
        <ele>1230.62</ele>
        <time>2017-10-07T11:19:48Z</time>
      </trkpt>
      <trkpt lat="44.60521" lon="3.66224">
        <ele>1229.66</ele>
        <time>2017-10-07T11:20:05Z</time>
      </trkpt>
      <trkpt lat="44.605" lon="3.66236">
        <ele>1228.7</ele>
        <time>2017-10-07T11:20:26Z</time>
      </trkpt>
      <trkpt lat="44.60478" lon="3.66247">
        <ele>1227.74</ele>
        <time>2017-10-07T11:20:47Z</time>
      </trkpt>
      <trkpt lat="44.60454" lon="3.66259">
        <ele>1227.26</ele>
        <time>2017-10-07T11:21:09Z</time>
      </trkpt>
      <trkpt lat="44.60435" lon="3.66279">
        <ele>1226.3</ele>
        <time>2017-10-07T11:21:31Z</time>
      </trkpt>
      <trkpt lat="44.60421" lon="3.66295">
        <ele>1225.34</ele>
        <time>2017-10-07T11:21:47Z</time>
      </trkpt>
      <trkpt lat="44.60408" lon="3.66312">
        <ele>1224.38</ele>
        <time>2017-10-07T11:22:03Z</time>
      </trkpt>
      <trkpt lat="44.60392" lon="3.66332">
        <ele>1223.9</ele>
        <time>2017-10-07T11:22:22Z</time>
      </trkpt>
      <trkpt lat="44.60373" lon="3.66356">
        <ele>1222.93</ele>
        <time>2017-10-07T11:22:45Z</time>
      </trkpt>
      <trkpt lat="44.60353" lon="3.66381">
        <ele>1221.97</ele>
        <time>2017-10-07T11:23:08Z</time>
      </trkpt>
      <trkpt lat="44.60332" lon="3.66406">
        <ele>1221.01</ele>
        <time>2017-10-07T11:23:33Z</time>
      </trkpt>
      <trkpt lat="44.60307" lon="3.66433">
        <ele>1219.57</ele>
        <time>2017-10-07T11:24:00Z</time>
      </trkpt>
      <trkpt lat="44.60284" lon="3.66456">
        <ele>1219.57</ele>
        <time>2017-10-07T11:24:24Z</time>
      </trkpt>
      <trkpt lat="44.60259" lon="3.66478">
        <ele>1218.61</ele>
        <time>2017-10-07T11:24:50Z</time>
      </trkpt>
      <trkpt lat="44.6025" lon="3.6649">
        <ele>1219.09</ele>
        <time>2017-10-07T11:25:09Z</time>
      </trkpt>
      <trkpt lat="44.6025" lon="3.66494">
        <ele>1218.13</ele>
        <time>2017-10-07T11:25:27Z</time>
      </trkpt>
      <trkpt lat="44.60244" lon="3.66498">
        <ele>1219.09</ele>
        <time>2017-10-07T11:25:44Z</time>
      </trkpt>
      <trkpt lat="44.60246" lon="3.66497">
        <ele>1219.09</ele>
        <time>2017-10-07T11:26:07Z</time>
      </trkpt>
      <trkpt lat="44.60246" lon="3.66498">
        <ele>1217.65</ele>
        <time>2017-10-07T11:26:22Z</time>
      </trkpt>
      <trkpt lat="44.60245" lon="3.66498">
        <ele>1221.01</ele>
        <time>2017-10-07T11:26:26Z</time>
      </trkpt>
      <trkpt lat="44.60246" lon="3.66495">
        <ele>1218.13</ele>
        <time>2017-10-07T11:26:53Z</time>
      </trkpt>
      <trkpt lat="44.60243" lon="3.66494">
        <ele>1218.13</ele>
        <time>2017-10-07T11:27:19Z</time>
      </trkpt>
      <trkpt lat="44.6024" lon="3.66495">
        <ele>1217.65</ele>
        <time>2017-10-07T11:27:39Z</time>
      </trkpt>
      <trkpt lat="44.60236" lon="3.66501">
        <ele>1217.65</ele>
        <time>2017-10-07T11:28:08Z</time>
      </trkpt>
      <trkpt lat="44.60234" lon="3.665">
        <ele>1217.65</ele>
        <time>2017-10-07T11:28:29Z</time>
      </trkpt>
      <trkpt lat="44.60232" lon="3.66501">
        <ele>1217.65</ele>
        <time>2017-10-07T11:29:04Z</time>
      </trkpt>
      <trkpt lat="44.60222" lon="3.66513">
        <ele>1217.65</ele>
        <time>2017-10-07T11:29:22Z</time>
      </trkpt>
      <trkpt lat="44.60221" lon="3.66514">
        <ele>1217.65</ele>
        <time>2017-10-07T11:29:24Z</time>
      </trkpt>
      <trkpt lat="44.60193" lon="3.66531">
        <ele>1217.17</ele>
        <time>2017-10-07T11:29:52Z</time>
      </trkpt>
      <trkpt lat="44.60168" lon="3.66543">
        <ele>1216.21</ele>
        <time>2017-10-07T11:30:17Z</time>
      </trkpt>
      <trkpt lat="44.60142" lon="3.66558">
        <ele>1215.72</ele>
        <time>2017-10-07T11:30:41Z</time>
      </trkpt>
      <trkpt lat="44.60136" lon="3.66578">
        <ele>1214.76</ele>
        <time>2017-10-07T11:30:56Z</time>
      </trkpt>
      <trkpt lat="44.60136" lon="3.6658">
        <ele>1214.76</ele>
        <time>2017-10-07T11:30:57Z</time>
      </trkpt>
      <trkpt lat="44.60135" lon="3.66581">
        <ele>1214.76</ele>
        <time>2017-10-07T11:30:58Z</time>
      </trkpt>
      <trkpt lat="44.60134" lon="3.66616">
        <ele>1212.36</ele>
        <time>2017-10-07T11:31:23Z</time>
      </trkpt>
      <trkpt lat="44.60129" lon="3.66632">
        <ele>1210.44</ele>
        <time>2017-10-07T11:31:34Z</time>
      </trkpt>
      <trkpt lat="44.60126" lon="3.66639">
        <ele>1213.8</ele>
        <time>2017-10-07T11:31:39Z</time>
      </trkpt>
      <trkpt lat="44.60125" lon="3.66642">
        <ele>1210.92</ele>
        <time>2017-10-07T11:31:42Z</time>
      </trkpt>
      <trkpt lat="44.60123" lon="3.6665">
        <ele>1210.44</ele>
        <time>2017-10-07T11:31:48Z</time>
      </trkpt>
      <trkpt lat="44.60122" lon="3.66653">
        <ele>1209.96</ele>
        <time>2017-10-07T11:32:07Z</time>
      </trkpt>
      <trkpt lat="44.60119" lon="3.6666">
        <ele>1209.96</ele>
        <time>2017-10-07T11:32:33Z</time>
      </trkpt>
      <trkpt lat="44.60119" lon="3.6666">
        <ele>1209.96</ele>
        <time>2017-10-07T11:32:34Z</time>
      </trkpt>
      <trkpt lat="44.6011" lon="3.66684">
        <ele>1208.51</ele>
        <time>2017-10-07T11:32:53Z</time>
      </trkpt>
      <trkpt lat="44.60101" lon="3.66706">
        <ele>1207.07</ele>
        <time>2017-10-07T11:33:11Z</time>
      </trkpt>
      <trkpt lat="44.60099" lon="3.66714">
        <ele>1207.07</ele>
        <time>2017-10-07T11:33:26Z</time>
      </trkpt>
      <trkpt lat="44.60096" lon="3.66716">
        <ele>1206.11</ele>
        <time>2017-10-07T11:33:34Z</time>
      </trkpt>
      <trkpt lat="44.60095" lon="3.66717">
        <ele>1206.11</ele>
        <time>2017-10-07T11:33:35Z</time>
      </trkpt>
      <trkpt lat="44.60077" lon="3.66725">
        <ele>1205.63</ele>
        <time>2017-10-07T11:33:55Z</time>
      </trkpt>
      <trkpt lat="44.6007" lon="3.66719">
        <ele>1205.15</ele>
        <time>2017-10-07T11:34:03Z</time>
      </trkpt>
      <trkpt lat="44.60057" lon="3.66704">
        <ele>1205.15</ele>
        <time>2017-10-07T11:34:21Z</time>
      </trkpt>
      <trkpt lat="44.60049" lon="3.66698">
        <ele>1205.15</ele>
        <time>2017-10-07T11:34:39Z</time>
      </trkpt>
      <trkpt lat="44.60047" lon="3.66689">
        <ele>1205.15</ele>
        <time>2017-10-07T11:34:56Z</time>
      </trkpt>
      <trkpt lat="44.60047" lon="3.66688">
        <ele>1205.15</ele>
        <time>2017-10-07T11:35:22Z</time>
      </trkpt>
      <trkpt lat="44.60047" lon="3.66692">
        <ele>1204.67</ele>
        <time>2017-10-07T11:35:48Z</time>
      </trkpt>
      <trkpt lat="44.6005" lon="3.66698">
        <ele>1205.15</ele>
        <time>2017-10-07T11:36:07Z</time>
      </trkpt>
      <trkpt lat="44.60048" lon="3.66695">
        <ele>1205.15</ele>
        <time>2017-10-07T11:36:26Z</time>
      </trkpt>
      <trkpt lat="44.60039" lon="3.6668">
        <ele>1205.15</ele>
        <time>2017-10-07T11:36:43Z</time>
      </trkpt>
      <trkpt lat="44.60031" lon="3.6667">
        <ele>1205.15</ele>
        <time>2017-10-07T11:37:03Z</time>
      </trkpt>
      <trkpt lat="44.60024" lon="3.6666">
        <ele>1205.15</ele>
        <time>2017-10-07T11:37:19Z</time>
      </trkpt>
      <trkpt lat="44.60007" lon="3.66649">
        <ele>1206.59</ele>
        <time>2017-10-07T11:37:38Z</time>
      </trkpt>
      <trkpt lat="44.59991" lon="3.66647">
        <ele>1207.07</ele>
        <time>2017-10-07T11:37:56Z</time>
      </trkpt>
      <trkpt lat="44.59973" lon="3.66645">
        <ele>1207.55</ele>
        <time>2017-10-07T11:38:15Z</time>
      </trkpt>
      <trkpt lat="44.59964" lon="3.66647">
        <ele>1208.03</ele>
        <time>2017-10-07T11:38:26Z</time>
      </trkpt>
      <trkpt lat="44.59945" lon="3.66648">
        <ele>1208.51</ele>
        <time>2017-10-07T11:38:44Z</time>
      </trkpt>
      <trkpt lat="44.59929" lon="3.66653">
        <ele>1209</ele>
        <time>2017-10-07T11:39:03Z</time>
      </trkpt>
      <trkpt lat="44.59912" lon="3.66658">
        <ele>1209.96</ele>
        <time>2017-10-07T11:39:21Z</time>
      </trkpt>
      <trkpt lat="44.59895" lon="3.66652">
        <ele>1210.92</ele>
        <time>2017-10-07T11:39:38Z</time>
      </trkpt>
      <trkpt lat="44.59889" lon="3.66644">
        <ele>1211.4</ele>
        <time>2017-10-07T11:39:46Z</time>
      </trkpt>
      <trkpt lat="44.59886" lon="3.6664">
        <ele>1212.84</ele>
        <time>2017-10-07T11:39:50Z</time>
      </trkpt>
      <trkpt lat="44.59875" lon="3.66626">
        <ele>1213.32</ele>
        <time>2017-10-07T11:40:08Z</time>
      </trkpt>
      <trkpt lat="44.59863" lon="3.66614">
        <ele>1217.17</ele>
        <time>2017-10-07T11:40:24Z</time>
      </trkpt>
      <trkpt lat="44.59849" lon="3.66604">
        <ele>1214.76</ele>
        <time>2017-10-07T11:40:39Z</time>
      </trkpt>
      <trkpt lat="44.59839" lon="3.66595">
        <ele>1218.13</ele>
        <time>2017-10-07T11:40:53Z</time>
      </trkpt>
      <trkpt lat="44.59825" lon="3.66582">
        <ele>1220.53</ele>
        <time>2017-10-07T11:41:12Z</time>
      </trkpt>
      <trkpt lat="44.59808" lon="3.66569">
        <ele>1223.42</ele>
        <time>2017-10-07T11:41:34Z</time>
      </trkpt>
      <trkpt lat="44.59797" lon="3.66567">
        <ele>1223.9</ele>
        <time>2017-10-07T11:41:50Z</time>
      </trkpt>
      <trkpt lat="44.59781" lon="3.66561">
        <ele>1225.34</ele>
        <time>2017-10-07T11:42:09Z</time>
      </trkpt>
      <trkpt lat="44.59764" lon="3.66558">
        <ele>1227.74</ele>
        <time>2017-10-07T11:42:28Z</time>
      </trkpt>
      <trkpt lat="44.59743" lon="3.66559">
        <ele>1229.66</ele>
        <time>2017-10-07T11:42:50Z</time>
      </trkpt>
      <trkpt lat="44.59724" lon="3.6656">
        <ele>1230.62</ele>
        <time>2017-10-07T11:43:09Z</time>
      </trkpt>
      <trkpt lat="44.59706" lon="3.66558">
        <ele>1232.55</ele>
        <time>2017-10-07T11:43:27Z</time>
      </trkpt>
      <trkpt lat="44.59689" lon="3.66556">
        <ele>1234.47</ele>
        <time>2017-10-07T11:43:44Z</time>
      </trkpt>
      <trkpt lat="44.59672" lon="3.66556">
        <ele>1235.43</ele>
        <time>2017-10-07T11:44:00Z</time>
      </trkpt>
      <trkpt lat="44.59662" lon="3.66557">
        <ele>1235.43</ele>
        <time>2017-10-07T11:44:17Z</time>
      </trkpt>
      <trkpt lat="44.59664" lon="3.66555">
        <ele>1234.95</ele>
        <time>2017-10-07T11:44:41Z</time>
      </trkpt>
      <trkpt lat="44.59664" lon="3.66558">
        <ele>1234.95</ele>
        <time>2017-10-07T11:45:05Z</time>
      </trkpt>
      <trkpt lat="44.59663" lon="3.66558">
        <ele>1234.95</ele>
        <time>2017-10-07T11:45:29Z</time>
      </trkpt>
      <trkpt lat="44.59665" lon="3.66556">
        <ele>1234.95</ele>
        <time>2017-10-07T11:45:45Z</time>
      </trkpt>
      <trkpt lat="44.59665" lon="3.66556">
        <ele>1235.43</ele>
        <time>2017-10-07T11:45:57Z</time>
      </trkpt>
      <trkpt lat="44.59663" lon="3.66554">
        <ele>1239.28</ele>
        <time>2017-10-07T11:46:08Z</time>
      </trkpt>
      <trkpt lat="44.59662" lon="3.66554">
        <ele>1238.8</ele>
        <time>2017-10-07T11:46:09Z</time>
      </trkpt>
      <trkpt lat="44.59662" lon="3.66554">
        <ele>1235.43</ele>
        <time>2017-10-07T11:46:10Z</time>
      </trkpt>
      <trkpt lat="44.59662" lon="3.66554">
        <ele>1235.43</ele>
        <time>2017-10-07T11:46:11Z</time>
      </trkpt>
      <trkpt lat="44.59663" lon="3.66556">
        <ele>1235.43</ele>
        <time>2017-10-07T11:46:30Z</time>
      </trkpt>
      <trkpt lat="44.59665" lon="3.66555">
        <ele>1234.95</ele>
        <time>2017-10-07T11:46:55Z</time>
      </trkpt>
      <trkpt lat="44.59665" lon="3.66556">
        <ele>1234.95</ele>
        <time>2017-10-07T11:47:19Z</time>
      </trkpt>
      <trkpt lat="44.59659" lon="3.66554">
        <ele>1234.95</ele>
        <time>2017-10-07T11:47:38Z</time>
      </trkpt>
      <trkpt lat="44.59642" lon="3.6655">
        <ele>1234.95</ele>
        <time>2017-10-07T11:47:55Z</time>
      </trkpt>
      <trkpt lat="44.59635" lon="3.66547">
        <ele>1234.47</ele>
        <time>2017-10-07T11:48:12Z</time>
      </trkpt>
      <trkpt lat="44.59622" lon="3.66545">
        <ele>1234.47</ele>
        <time>2017-10-07T11:48:27Z</time>
      </trkpt>
      <trkpt lat="44.59618" lon="3.66544">
        <ele>1234.47</ele>
        <time>2017-10-07T11:48:31Z</time>
      </trkpt>
      <trkpt lat="44.59594" lon="3.66542">
        <ele>1233.99</ele>
        <time>2017-10-07T11:48:53Z</time>
      </trkpt>
      <trkpt lat="44.59576" lon="3.66538">
        <ele>1233.03</ele>
        <time>2017-10-07T11:49:10Z</time>
      </trkpt>
      <trkpt lat="44.59553" lon="3.66532">
        <ele>1232.55</ele>
        <time>2017-10-07T11:49:31Z</time>
      </trkpt>
      <trkpt lat="44.59547" lon="3.66533">
        <ele>1232.55</ele>
        <time>2017-10-07T11:49:36Z</time>
      </trkpt>
      <trkpt lat="44.59526" lon="3.66543">
        <ele>1232.07</ele>
        <time>2017-10-07T11:49:58Z</time>
      </trkpt>
      <trkpt lat="44.59507" lon="3.66556">
        <ele>1231.11</ele>
        <time>2017-10-07T11:50:19Z</time>
      </trkpt>
      <trkpt lat="44.59486" lon="3.66574">
        <ele>1229.18</ele>
        <time>2017-10-07T11:50:41Z</time>
      </trkpt>
      <trkpt lat="44.59466" lon="3.6658">
        <ele>1229.18</ele>
        <time>2017-10-07T11:50:58Z</time>
      </trkpt>
      <trkpt lat="44.59442" lon="3.66583">
        <ele>1229.18</ele>
        <time>2017-10-07T11:51:19Z</time>
      </trkpt>
      <trkpt lat="44.59422" lon="3.66585">
        <ele>1228.7</ele>
        <time>2017-10-07T11:51:37Z</time>
      </trkpt>
      <trkpt lat="44.5941" lon="3.66585">
        <ele>1230.14</ele>
        <time>2017-10-07T11:51:46Z</time>
      </trkpt>
      <trkpt lat="44.59386" lon="3.66582">
        <ele>1231.11</ele>
        <time>2017-10-07T11:52:08Z</time>
      </trkpt>
      <trkpt lat="44.59366" lon="3.66577">
        <ele>1231.59</ele>
        <time>2017-10-07T11:52:27Z</time>
      </trkpt>
      <trkpt lat="44.59348" lon="3.66578">
        <ele>1232.07</ele>
        <time>2017-10-07T11:52:43Z</time>
      </trkpt>
      <trkpt lat="44.59341" lon="3.66582">
        <ele>1232.55</ele>
        <time>2017-10-07T11:52:52Z</time>
      </trkpt>
      <trkpt lat="44.59335" lon="3.66586">
        <ele>1232.55</ele>
        <time>2017-10-07T11:52:59Z</time>
      </trkpt>
      <trkpt lat="44.59326" lon="3.66593">
        <ele>1233.03</ele>
        <time>2017-10-07T11:53:08Z</time>
      </trkpt>
      <trkpt lat="44.59305" lon="3.66605">
        <ele>1234.95</ele>
        <time>2017-10-07T11:53:29Z</time>
      </trkpt>
      <trkpt lat="44.5929" lon="3.66607">
        <ele>1233.99</ele>
        <time>2017-10-07T11:53:46Z</time>
      </trkpt>
      <trkpt lat="44.59293" lon="3.66606">
        <ele>1235.91</ele>
        <time>2017-10-07T11:54:09Z</time>
      </trkpt>
      <trkpt lat="44.59292" lon="3.66606">
        <ele>1236.39</ele>
        <time>2017-10-07T11:54:26Z</time>
      </trkpt>
      <trkpt lat="44.59292" lon="3.66608">
        <ele>1235.91</ele>
        <time>2017-10-07T11:54:42Z</time>
      </trkpt>
      <trkpt lat="44.59291" lon="3.66608">
        <ele>1235.43</ele>
        <time>2017-10-07T11:54:49Z</time>
      </trkpt>
      <trkpt lat="44.5929" lon="3.66609">
        <ele>1236.39</ele>
        <time>2017-10-07T11:54:53Z</time>
      </trkpt>
      <trkpt lat="44.59285" lon="3.66605">
        <ele>1236.39</ele>
        <time>2017-10-07T11:55:12Z</time>
      </trkpt>
      <trkpt lat="44.59282" lon="3.66605">
        <ele>1236.39</ele>
        <time>2017-10-07T11:55:15Z</time>
      </trkpt>
      <trkpt lat="44.59265" lon="3.666">
        <ele>1236.87</ele>
        <time>2017-10-07T11:55:34Z</time>
      </trkpt>
      <trkpt lat="44.59244" lon="3.66598">
        <ele>1237.83</ele>
        <time>2017-10-07T11:55:54Z</time>
      </trkpt>
      <trkpt lat="44.59223" lon="3.6659">
        <ele>1237.83</ele>
        <time>2017-10-07T11:56:14Z</time>
      </trkpt>
      <trkpt lat="44.59202" lon="3.66584">
        <ele>1238.32</ele>
        <time>2017-10-07T11:56:33Z</time>
      </trkpt>
      <trkpt lat="44.5918" lon="3.66581">
        <ele>1238.8</ele>
        <time>2017-10-07T11:56:54Z</time>
      </trkpt>
      <trkpt lat="44.5916" lon="3.66575">
        <ele>1238.8</ele>
        <time>2017-10-07T11:57:13Z</time>
      </trkpt>
      <trkpt lat="44.59139" lon="3.66564">
        <ele>1239.76</ele>
        <time>2017-10-07T11:57:34Z</time>
      </trkpt>
      <trkpt lat="44.59117" lon="3.66552">
        <ele>1240.72</ele>
        <time>2017-10-07T11:57:55Z</time>
      </trkpt>
      <trkpt lat="44.59108" lon="3.66552">
        <ele>1241.2</ele>
        <time>2017-10-07T11:58:12Z</time>
      </trkpt>
      <trkpt lat="44.59102" lon="3.66549">
        <ele>1241.2</ele>
        <time>2017-10-07T11:58:29Z</time>
      </trkpt>
      <trkpt lat="44.59085" lon="3.66547">
        <ele>1241.68</ele>
        <time>2017-10-07T11:58:46Z</time>
      </trkpt>
      <trkpt lat="44.59068" lon="3.66549">
        <ele>1242.16</ele>
        <time>2017-10-07T11:59:03Z</time>
      </trkpt>
      <trkpt lat="44.5905" lon="3.66546">
        <ele>1242.64</ele>
        <time>2017-10-07T11:59:25Z</time>
      </trkpt>
      <trkpt lat="44.59051" lon="3.66546">
        <ele>1239.76</ele>
        <time>2017-10-07T11:59:40Z</time>
      </trkpt>
      <trkpt lat="44.59051" lon="3.66546">
        <ele>1245.04</ele>
        <time>2017-10-07T11:59:41Z</time>
      </trkpt>
      <trkpt lat="44.59051" lon="3.66546">
        <ele>1241.68</ele>
        <time>2017-10-07T11:59:46Z</time>
      </trkpt>
      <trkpt lat="44.5905" lon="3.66546">
        <ele>1241.2</ele>
        <time>2017-10-07T12:00:06Z</time>
      </trkpt>
      <trkpt lat="44.59052" lon="3.66547">
        <ele>1242.16</ele>
        <time>2017-10-07T12:00:19Z</time>
      </trkpt>
      <trkpt lat="44.59051" lon="3.66547">
        <ele>1242.64</ele>
        <time>2017-10-07T12:00:42Z</time>
      </trkpt>
      <trkpt lat="44.5905" lon="3.66546">
        <ele>1242.64</ele>
        <time>2017-10-07T12:01:06Z</time>
      </trkpt>
      <trkpt lat="44.59033" lon="3.66548">
        <ele>1242.64</ele>
        <time>2017-10-07T12:01:25Z</time>
      </trkpt>
      <trkpt lat="44.59018" lon="3.66548">
        <ele>1242.64</ele>
        <time>2017-10-07T12:01:41Z</time>
      </trkpt>
      <trkpt lat="44.59005" lon="3.66549">
        <ele>1243.12</ele>
        <time>2017-10-07T12:02:02Z</time>
      </trkpt>
      <trkpt lat="44.59" lon="3.66549">
        <ele>1243.12</ele>
        <time>2017-10-07T12:02:16Z</time>
      </trkpt>
      <trkpt lat="44.58981" lon="3.66547">
        <ele>1244.08</ele>
        <time>2017-10-07T12:02:36Z</time>
      </trkpt>
      <trkpt lat="44.58982" lon="3.66547">
        <ele>1244.56</ele>
        <time>2017-10-07T12:02:54Z</time>
      </trkpt>
      <trkpt lat="44.58981" lon="3.66548">
        <ele>1244.08</ele>
        <time>2017-10-07T12:03:24Z</time>
      </trkpt>
      <trkpt lat="44.58962" lon="3.66543">
        <ele>1245.04</ele>
        <time>2017-10-07T12:03:43Z</time>
      </trkpt>
      <trkpt lat="44.58945" lon="3.6653">
        <ele>1245.53</ele>
        <time>2017-10-07T12:04:02Z</time>
      </trkpt>
      <trkpt lat="44.58924" lon="3.66515">
        <ele>1246.49</ele>
        <time>2017-10-07T12:04:24Z</time>
      </trkpt>
      <trkpt lat="44.58902" lon="3.66501">
        <ele>1246.97</ele>
        <time>2017-10-07T12:04:44Z</time>
      </trkpt>
      <trkpt lat="44.58879" lon="3.66486">
        <ele>1247.45</ele>
        <time>2017-10-07T12:05:08Z</time>
      </trkpt>
      <trkpt lat="44.58854" lon="3.66478">
        <ele>1248.41</ele>
        <time>2017-10-07T12:05:31Z</time>
      </trkpt>
      <trkpt lat="44.58834" lon="3.66471">
        <ele>1248.89</ele>
        <time>2017-10-07T12:05:51Z</time>
      </trkpt>
      <trkpt lat="44.5882" lon="3.66468">
        <ele>1249.85</ele>
        <time>2017-10-07T12:06:09Z</time>
      </trkpt>
      <trkpt lat="44.58809" lon="3.66466">
        <ele>1249.85</ele>
        <time>2017-10-07T12:06:27Z</time>
      </trkpt>
      <trkpt lat="44.58795" lon="3.66445">
        <ele>1249.85</ele>
        <time>2017-10-07T12:06:48Z</time>
      </trkpt>
      <trkpt lat="44.58789" lon="3.66423">
        <ele>1250.33</ele>
        <time>2017-10-07T12:07:06Z</time>
      </trkpt>
      <trkpt lat="44.58781" lon="3.66402">
        <ele>1250.33</ele>
        <time>2017-10-07T12:07:23Z</time>
      </trkpt>
      <trkpt lat="44.58774" lon="3.66379">
        <ele>1251.29</ele>
        <time>2017-10-07T12:07:40Z</time>
      </trkpt>
      <trkpt lat="44.58769" lon="3.66364">
        <ele>1252.74</ele>
        <time>2017-10-07T12:07:50Z</time>
      </trkpt>
      <trkpt lat="44.58762" lon="3.66339">
        <ele>1252.74</ele>
        <time>2017-10-07T12:08:08Z</time>
      </trkpt>
      <trkpt lat="44.58758" lon="3.66322">
        <ele>1253.22</ele>
        <time>2017-10-07T12:08:21Z</time>
      </trkpt>
      <trkpt lat="44.58757" lon="3.66319">
        <ele>1253.22</ele>
        <time>2017-10-07T12:08:23Z</time>
      </trkpt>
      <trkpt lat="44.58756" lon="3.66299">
        <ele>1253.7</ele>
        <time>2017-10-07T12:08:37Z</time>
      </trkpt>
      <trkpt lat="44.58755" lon="3.66268">
        <ele>1255.14</ele>
        <time>2017-10-07T12:08:57Z</time>
      </trkpt>
      <trkpt lat="44.58758" lon="3.66234">
        <ele>1255.62</ele>
        <time>2017-10-07T12:09:19Z</time>
      </trkpt>
      <trkpt lat="44.58766" lon="3.66202">
        <ele>1257.06</ele>
        <time>2017-10-07T12:09:41Z</time>
      </trkpt>
      <trkpt lat="44.58775" lon="3.66175">
        <ele>1258.02</ele>
        <time>2017-10-07T12:10:02Z</time>
      </trkpt>
      <trkpt lat="44.58784" lon="3.6615">
        <ele>1258.98</ele>
        <time>2017-10-07T12:10:20Z</time>
      </trkpt>
      <trkpt lat="44.58795" lon="3.66117">
        <ele>1260.91</ele>
        <time>2017-10-07T12:10:44Z</time>
      </trkpt>
      <trkpt lat="44.58805" lon="3.66084">
        <ele>1262.35</ele>
        <time>2017-10-07T12:11:08Z</time>
      </trkpt>
      <trkpt lat="44.58812" lon="3.66055">
        <ele>1263.31</ele>
        <time>2017-10-07T12:11:30Z</time>
      </trkpt>
      <trkpt lat="44.58815" lon="3.6602">
        <ele>1263.79</ele>
        <time>2017-10-07T12:11:54Z</time>
      </trkpt>
      <trkpt lat="44.58815" lon="3.65994">
        <ele>1264.27</ele>
        <time>2017-10-07T12:12:15Z</time>
      </trkpt>
      <trkpt lat="44.58813" lon="3.65982">
        <ele>1264.75</ele>
        <time>2017-10-07T12:12:29Z</time>
      </trkpt>
      <trkpt lat="44.58806" lon="3.65961">
        <ele>1264.75</ele>
        <time>2017-10-07T12:12:48Z</time>
      </trkpt>
      <trkpt lat="44.58802" lon="3.65972">
        <ele>1264.75</ele>
        <time>2017-10-07T12:13:04Z</time>
      </trkpt>
      <trkpt lat="44.58799" lon="3.65995">
        <ele>1264.75</ele>
        <time>2017-10-07T12:13:23Z</time>
      </trkpt>
      <trkpt lat="44.58801" lon="3.65996">
        <ele>1264.75</ele>
        <time>2017-10-07T12:13:40Z</time>
      </trkpt>
      <trkpt lat="44.58801" lon="3.65993">
        <ele>1264.75</ele>
        <time>2017-10-07T12:13:58Z</time>
      </trkpt>
      <trkpt lat="44.588" lon="3.65994">
        <ele>1264.75</ele>
        <time>2017-10-07T12:14:11Z</time>
      </trkpt>
      <trkpt lat="44.58797" lon="3.65997">
        <ele>1264.75</ele>
        <time>2017-10-07T12:14:37Z</time>
      </trkpt>
      <trkpt lat="44.58802" lon="3.65995">
        <ele>1264.75</ele>
        <time>2017-10-07T12:15:04Z</time>
      </trkpt>
      <trkpt lat="44.58805" lon="3.65994">
        <ele>1264.75</ele>
        <time>2017-10-07T12:15:20Z</time>
      </trkpt>
      <trkpt lat="44.58803" lon="3.65993">
        <ele>1264.75</ele>
        <time>2017-10-07T12:15:38Z</time>
      </trkpt>
      <trkpt lat="44.58796" lon="3.65998">
        <ele>1264.75</ele>
        <time>2017-10-07T12:15:57Z</time>
      </trkpt>
      <trkpt lat="44.58788" lon="3.66004">
        <ele>1264.75</ele>
        <time>2017-10-07T12:16:07Z</time>
      </trkpt>
      <trkpt lat="44.58785" lon="3.66014">
        <ele>1264.75</ele>
        <time>2017-10-07T12:16:25Z</time>
      </trkpt>
      <trkpt lat="44.58785" lon="3.66012">
        <ele>1264.75</ele>
        <time>2017-10-07T12:16:56Z</time>
      </trkpt>
      <trkpt lat="44.58787" lon="3.66006">
        <ele>1264.27</ele>
        <time>2017-10-07T12:17:15Z</time>
      </trkpt>
      <trkpt lat="44.58796" lon="3.65995">
        <ele>1264.27</ele>
        <time>2017-10-07T12:17:34Z</time>
      </trkpt>
      <trkpt lat="44.58798" lon="3.65994">
        <ele>1264.27</ele>
        <time>2017-10-07T12:18:03Z</time>
      </trkpt>
      <trkpt lat="44.58799" lon="3.65994">
        <ele>1264.27</ele>
        <time>2017-10-07T12:18:26Z</time>
      </trkpt>
      <trkpt lat="44.58799" lon="3.65982">
        <ele>1264.27</ele>
        <time>2017-10-07T12:18:41Z</time>
      </trkpt>
      <trkpt lat="44.58803" lon="3.65969">
        <ele>1264.27</ele>
        <time>2017-10-07T12:19:00Z</time>
      </trkpt>
      <trkpt lat="44.58805" lon="3.65959">
        <ele>1264.27</ele>
        <time>2017-10-07T12:19:16Z</time>
      </trkpt>
      <trkpt lat="44.58806" lon="3.65955">
        <ele>1265.71</ele>
        <time>2017-10-07T12:19:20Z</time>
      </trkpt>
      <trkpt lat="44.58807" lon="3.65952">
        <ele>1265.71</ele>
        <time>2017-10-07T12:19:23Z</time>
      </trkpt>
      <trkpt lat="44.58814" lon="3.65936">
        <ele>1266.67</ele>
        <time>2017-10-07T12:19:42Z</time>
      </trkpt>
      <trkpt lat="44.58818" lon="3.65925">
        <ele>1266.67</ele>
        <time>2017-10-07T12:19:56Z</time>
      </trkpt>
      <trkpt lat="44.58827" lon="3.65913">
        <ele>1266.67</ele>
        <time>2017-10-07T12:20:12Z</time>
      </trkpt>
      <trkpt lat="44.58842" lon="3.65887">
        <ele>1266.67</ele>
        <time>2017-10-07T12:20:36Z</time>
      </trkpt>
      <trkpt lat="44.58859" lon="3.65861">
        <ele>1267.16</ele>
        <time>2017-10-07T12:20:59Z</time>
      </trkpt>
      <trkpt lat="44.58872" lon="3.65838">
        <ele>1267.64</ele>
        <time>2017-10-07T12:21:19Z</time>
      </trkpt>
      <trkpt lat="44.58888" lon="3.65809">
        <ele>1268.6</ele>
        <time>2017-10-07T12:21:42Z</time>
      </trkpt>
      <trkpt lat="44.58903" lon="3.65786">
        <ele>1269.08</ele>
        <time>2017-10-07T12:22:04Z</time>
      </trkpt>
      <trkpt lat="44.58919" lon="3.65761">
        <ele>1269.56</ele>
        <time>2017-10-07T12:22:26Z</time>
      </trkpt>
      <trkpt lat="44.58932" lon="3.65739">
        <ele>1270.04</ele>
        <time>2017-10-07T12:22:46Z</time>
      </trkpt>
      <trkpt lat="44.58943" lon="3.65719">
        <ele>1271</ele>
        <time>2017-10-07T12:23:08Z</time>
      </trkpt>
      <trkpt lat="44.58946" lon="3.65717">
        <ele>1271.48</ele>
        <time>2017-10-07T12:23:22Z</time>
      </trkpt>
      <trkpt lat="44.58946" lon="3.65717">
        <ele>1271.96</ele>
        <time>2017-10-07T12:23:35Z</time>
      </trkpt>
      <trkpt lat="44.58956" lon="3.65703">
        <ele>1271.48</ele>
        <time>2017-10-07T12:23:50Z</time>
      </trkpt>
      <trkpt lat="44.58967" lon="3.65684">
        <ele>1271.48</ele>
        <time>2017-10-07T12:24:08Z</time>
      </trkpt>
      <trkpt lat="44.58971" lon="3.65677">
        <ele>1271.48</ele>
        <time>2017-10-07T12:24:15Z</time>
      </trkpt>
      <trkpt lat="44.58975" lon="3.6567">
        <ele>1272.44</ele>
        <time>2017-10-07T12:24:22Z</time>
      </trkpt>
      <trkpt lat="44.58988" lon="3.6565">
        <ele>1272.44</ele>
        <time>2017-10-07T12:24:40Z</time>
      </trkpt>
      <trkpt lat="44.59004" lon="3.65625">
        <ele>1272.44</ele>
        <time>2017-10-07T12:25:02Z</time>
      </trkpt>
      <trkpt lat="44.59017" lon="3.65605">
        <ele>1272.44</ele>
        <time>2017-10-07T12:25:21Z</time>
      </trkpt>
      <trkpt lat="44.5902" lon="3.65597">
        <ele>1272.44</ele>
        <time>2017-10-07T12:25:38Z</time>
      </trkpt>
      <trkpt lat="44.59032" lon="3.6558">
        <ele>1273.4</ele>
        <time>2017-10-07T12:25:55Z</time>
      </trkpt>
      <trkpt lat="44.59045" lon="3.65559">
        <ele>1273.4</ele>
        <time>2017-10-07T12:26:15Z</time>
      </trkpt>
      <trkpt lat="44.59056" lon="3.65539">
        <ele>1273.88</ele>
        <time>2017-10-07T12:26:31Z</time>
      </trkpt>
      <trkpt lat="44.59067" lon="3.65522">
        <ele>1273.88</ele>
        <time>2017-10-07T12:26:51Z</time>
      </trkpt>
      <trkpt lat="44.59068" lon="3.65513">
        <ele>1273.88</ele>
        <time>2017-10-07T12:27:03Z</time>
      </trkpt>
      <trkpt lat="44.59056" lon="3.65497">
        <ele>1273.4</ele>
        <time>2017-10-07T12:27:21Z</time>
      </trkpt>
      <trkpt lat="44.59047" lon="3.65485">
        <ele>1272.44</ele>
        <time>2017-10-07T12:27:36Z</time>
      </trkpt>
      <trkpt lat="44.59034" lon="3.65469">
        <ele>1271.48</ele>
        <time>2017-10-07T12:27:54Z</time>
      </trkpt>
      <trkpt lat="44.5902" lon="3.65453">
        <ele>1270.04</ele>
        <time>2017-10-07T12:28:12Z</time>
      </trkpt>
      <trkpt lat="44.59013" lon="3.65446">
        <ele>1269.08</ele>
        <time>2017-10-07T12:28:22Z</time>
      </trkpt>
      <trkpt lat="44.59002" lon="3.6543">
        <ele>1268.12</ele>
        <time>2017-10-07T12:28:38Z</time>
      </trkpt>
      <trkpt lat="44.58992" lon="3.65414">
        <ele>1266.67</ele>
        <time>2017-10-07T12:28:53Z</time>
      </trkpt>
      <trkpt lat="44.58982" lon="3.65395">
        <ele>1265.23</ele>
        <time>2017-10-07T12:29:09Z</time>
      </trkpt>
      <trkpt lat="44.58971" lon="3.65379">
        <ele>1263.31</ele>
        <time>2017-10-07T12:29:25Z</time>
      </trkpt>
      <trkpt lat="44.58964" lon="3.6537">
        <ele>1262.83</ele>
        <time>2017-10-07T12:29:39Z</time>
      </trkpt>
      <trkpt lat="44.5895" lon="3.65357">
        <ele>1262.35</ele>
        <time>2017-10-07T12:29:54Z</time>
      </trkpt>
      <trkpt lat="44.58936" lon="3.65341">
        <ele>1260.91</ele>
        <time>2017-10-07T12:30:11Z</time>
      </trkpt>
      <trkpt lat="44.58924" lon="3.65327">
        <ele>1261.87</ele>
        <time>2017-10-07T12:30:26Z</time>
      </trkpt>
      <trkpt lat="44.58923" lon="3.65326">
        <ele>1259.94</ele>
        <time>2017-10-07T12:30:28Z</time>
      </trkpt>
      <trkpt lat="44.58914" lon="3.65313">
        <ele>1259.94</ele>
        <time>2017-10-07T12:30:41Z</time>
      </trkpt>
      <trkpt lat="44.58902" lon="3.65298">
        <ele>1258.98</ele>
        <time>2017-10-07T12:30:59Z</time>
      </trkpt>
      <trkpt lat="44.58889" lon="3.65282">
        <ele>1258.5</ele>
        <time>2017-10-07T12:31:14Z</time>
      </trkpt>
      <trkpt lat="44.58878" lon="3.6527">
        <ele>1258.5</ele>
        <time>2017-10-07T12:31:26Z</time>
      </trkpt>
      <trkpt lat="44.58869" lon="3.65252">
        <ele>1258.02</ele>
        <time>2017-10-07T12:31:41Z</time>
      </trkpt>
      <trkpt lat="44.58858" lon="3.65239">
        <ele>1257.06</ele>
        <time>2017-10-07T12:31:56Z</time>
      </trkpt>
      <trkpt lat="44.58845" lon="3.65222">
        <ele>1256.58</ele>
        <time>2017-10-07T12:32:14Z</time>
      </trkpt>
      <trkpt lat="44.58834" lon="3.65211">
        <ele>1256.1</ele>
        <time>2017-10-07T12:32:28Z</time>
      </trkpt>
      <trkpt lat="44.58828" lon="3.65214">
        <ele>1256.1</ele>
        <time>2017-10-07T12:32:43Z</time>
      </trkpt>
      <trkpt lat="44.58825" lon="3.65209">
        <ele>1256.58</ele>
        <time>2017-10-07T12:32:50Z</time>
      </trkpt>
      <trkpt lat="44.5882" lon="3.65199">
        <ele>1255.14</ele>
        <time>2017-10-07T12:32:58Z</time>
      </trkpt>
      <trkpt lat="44.5881" lon="3.65186">
        <ele>1254.66</ele>
        <time>2017-10-07T12:33:11Z</time>
      </trkpt>
      <trkpt lat="44.58796" lon="3.65171">
        <ele>1254.18</ele>
        <time>2017-10-07T12:33:28Z</time>
      </trkpt>
      <trkpt lat="44.58786" lon="3.65158">
        <ele>1254.18</ele>
        <time>2017-10-07T12:33:41Z</time>
      </trkpt>
      <trkpt lat="44.58778" lon="3.65148">
        <ele>1253.7</ele>
        <time>2017-10-07T12:33:52Z</time>
      </trkpt>
      <trkpt lat="44.58765" lon="3.65131">
        <ele>1252.74</ele>
        <time>2017-10-07T12:34:08Z</time>
      </trkpt>
      <trkpt lat="44.58756" lon="3.65118">
        <ele>1252.25</ele>
        <time>2017-10-07T12:34:21Z</time>
      </trkpt>
      <trkpt lat="44.58755" lon="3.65117">
        <ele>1252.25</ele>
        <time>2017-10-07T12:34:22Z</time>
      </trkpt>
      <trkpt lat="44.58745" lon="3.65102">
        <ele>1251.77</ele>
        <time>2017-10-07T12:34:37Z</time>
      </trkpt>
      <trkpt lat="44.58736" lon="3.65094">
        <ele>1250.81</ele>
        <time>2017-10-07T12:34:46Z</time>
      </trkpt>
      <trkpt lat="44.58726" lon="3.65087">
        <ele>1250.33</ele>
        <time>2017-10-07T12:34:59Z</time>
      </trkpt>
      <trkpt lat="44.58715" lon="3.65081">
        <ele>1248.89</ele>
        <time>2017-10-07T12:35:14Z</time>
      </trkpt>
      <trkpt lat="44.58698" lon="3.65071">
        <ele>1247.93</ele>
        <time>2017-10-07T12:35:29Z</time>
      </trkpt>
      <trkpt lat="44.58683" lon="3.65059">
        <ele>1247.45</ele>
        <time>2017-10-07T12:35:43Z</time>
      </trkpt>
      <trkpt lat="44.58672" lon="3.65047">
        <ele>1247.45</ele>
        <time>2017-10-07T12:35:55Z</time>
      </trkpt>
      <trkpt lat="44.58659" lon="3.65036">
        <ele>1247.45</ele>
        <time>2017-10-07T12:36:08Z</time>
      </trkpt>
      <trkpt lat="44.58643" lon="3.65024">
        <ele>1246.49</ele>
        <time>2017-10-07T12:36:25Z</time>
      </trkpt>
      <trkpt lat="44.5863" lon="3.65008">
        <ele>1245.04</ele>
        <time>2017-10-07T12:36:43Z</time>
      </trkpt>
      <trkpt lat="44.58616" lon="3.6499">
        <ele>1244.56</ele>
        <time>2017-10-07T12:36:58Z</time>
      </trkpt>
      <trkpt lat="44.58604" lon="3.64976">
        <ele>1242.64</ele>
        <time>2017-10-07T12:37:13Z</time>
      </trkpt>
      <trkpt lat="44.58595" lon="3.64966">
        <ele>1243.12</ele>
        <time>2017-10-07T12:37:26Z</time>
      </trkpt>
      <trkpt lat="44.58595" lon="3.64972">
        <ele>1243.12</ele>
        <time>2017-10-07T12:37:45Z</time>
      </trkpt>
      <trkpt lat="44.58594" lon="3.64971">
        <ele>1243.12</ele>
        <time>2017-10-07T12:38:06Z</time>
      </trkpt>
      <trkpt lat="44.58594" lon="3.64972">
        <ele>1243.12</ele>
        <time>2017-10-07T12:38:25Z</time>
      </trkpt>
      <trkpt lat="44.58601" lon="3.64969">
        <ele>1243.12</ele>
        <time>2017-10-07T12:38:50Z</time>
      </trkpt>
      <trkpt lat="44.58601" lon="3.64971">
        <ele>1242.64</ele>
        <time>2017-10-07T12:39:12Z</time>
      </trkpt>
      <trkpt lat="44.58601" lon="3.64966">
        <ele>1242.64</ele>
        <time>2017-10-07T12:39:38Z</time>
      </trkpt>
      <trkpt lat="44.586" lon="3.64967">
        <ele>1242.64</ele>
        <time>2017-10-07T12:40:00Z</time>
      </trkpt>
      <trkpt lat="44.586" lon="3.64965">
        <ele>1242.64</ele>
        <time>2017-10-07T12:40:25Z</time>
      </trkpt>
      <trkpt lat="44.58596" lon="3.64964">
        <ele>1242.64</ele>
        <time>2017-10-07T12:40:51Z</time>
      </trkpt>
      <trkpt lat="44.58594" lon="3.64963">
        <ele>1242.64</ele>
        <time>2017-10-07T12:41:14Z</time>
      </trkpt>
      <trkpt lat="44.58599" lon="3.6496">
        <ele>1242.64</ele>
        <time>2017-10-07T12:41:35Z</time>
      </trkpt>
      <trkpt lat="44.58602" lon="3.64957">
        <ele>1242.64</ele>
        <time>2017-10-07T12:41:47Z</time>
      </trkpt>
      <trkpt lat="44.58601" lon="3.6496">
        <ele>1244.08</ele>
        <time>2017-10-07T12:42:03Z</time>
      </trkpt>
      <trkpt lat="44.58601" lon="3.64958">
        <ele>1244.08</ele>
        <time>2017-10-07T12:42:11Z</time>
      </trkpt>
      <trkpt lat="44.58608" lon="3.64944">
        <ele>1244.56</ele>
        <time>2017-10-07T12:42:26Z</time>
      </trkpt>
      <trkpt lat="44.58609" lon="3.64944">
        <ele>1244.56</ele>
        <time>2017-10-07T12:42:43Z</time>
      </trkpt>
      <trkpt lat="44.58619" lon="3.64926">
        <ele>1244.56</ele>
        <time>2017-10-07T12:42:57Z</time>
      </trkpt>
      <trkpt lat="44.58627" lon="3.64914">
        <ele>1244.56</ele>
        <time>2017-10-07T12:43:11Z</time>
      </trkpt>
      <trkpt lat="44.5864" lon="3.64894">
        <ele>1245.04</ele>
        <time>2017-10-07T12:43:28Z</time>
      </trkpt>
      <trkpt lat="44.58653" lon="3.6488">
        <ele>1245.04</ele>
        <time>2017-10-07T12:43:42Z</time>
      </trkpt>
      <trkpt lat="44.58667" lon="3.64866">
        <ele>1245.53</ele>
        <time>2017-10-07T12:43:57Z</time>
      </trkpt>
      <trkpt lat="44.58675" lon="3.64858">
        <ele>1245.53</ele>
        <time>2017-10-07T12:44:14Z</time>
      </trkpt>
      <trkpt lat="44.58684" lon="3.64849">
        <ele>1245.53</ele>
        <time>2017-10-07T12:44:30Z</time>
      </trkpt>
      <trkpt lat="44.58697" lon="3.64837">
        <ele>1245.53</ele>
        <time>2017-10-07T12:44:45Z</time>
      </trkpt>
      <trkpt lat="44.58705" lon="3.64825">
        <ele>1246.49</ele>
        <time>2017-10-07T12:44:55Z</time>
      </trkpt>
      <trkpt lat="44.58718" lon="3.64806">
        <ele>1246.97</ele>
        <time>2017-10-07T12:45:12Z</time>
      </trkpt>
      <trkpt lat="44.58729" lon="3.64791">
        <ele>1246.97</ele>
        <time>2017-10-07T12:45:26Z</time>
      </trkpt>
      <trkpt lat="44.58737" lon="3.64778">
        <ele>1246.49</ele>
        <time>2017-10-07T12:45:39Z</time>
      </trkpt>
      <trkpt lat="44.58745" lon="3.64763">
        <ele>1246.49</ele>
        <time>2017-10-07T12:45:53Z</time>
      </trkpt>
      <trkpt lat="44.58754" lon="3.6474">
        <ele>1246.49</ele>
        <time>2017-10-07T12:46:08Z</time>
      </trkpt>
      <trkpt lat="44.58761" lon="3.64715">
        <ele>1247.45</ele>
        <time>2017-10-07T12:46:22Z</time>
      </trkpt>
      <trkpt lat="44.58766" lon="3.64699">
        <ele>1248.41</ele>
        <time>2017-10-07T12:46:33Z</time>
      </trkpt>
      <trkpt lat="44.58769" lon="3.6469">
        <ele>1247.45</ele>
        <time>2017-10-07T12:46:40Z</time>
      </trkpt>
      <trkpt lat="44.5877" lon="3.64685">
        <ele>1247.45</ele>
        <time>2017-10-07T12:46:44Z</time>
      </trkpt>
      <trkpt lat="44.5877" lon="3.64683">
        <ele>1247.45</ele>
        <time>2017-10-07T12:46:46Z</time>
      </trkpt>
      <trkpt lat="44.58773" lon="3.64673">
        <ele>1247.45</ele>
        <time>2017-10-07T12:46:52Z</time>
      </trkpt>
      <trkpt lat="44.58777" lon="3.64651">
        <ele>1247.45</ele>
        <time>2017-10-07T12:47:09Z</time>
      </trkpt>
      <trkpt lat="44.58781" lon="3.64624">
        <ele>1247.45</ele>
        <time>2017-10-07T12:47:26Z</time>
      </trkpt>
      <trkpt lat="44.58781" lon="3.64623">
        <ele>1247.45</ele>
        <time>2017-10-07T12:47:27Z</time>
      </trkpt>
      <trkpt lat="44.58778" lon="3.646">
        <ele>1247.45</ele>
        <time>2017-10-07T12:47:44Z</time>
      </trkpt>
      <trkpt lat="44.58777" lon="3.64574">
        <ele>1246.97</ele>
        <time>2017-10-07T12:48:02Z</time>
      </trkpt>
      <trkpt lat="44.58775" lon="3.64557">
        <ele>1246.97</ele>
        <time>2017-10-07T12:48:15Z</time>
      </trkpt>
      <trkpt lat="44.58766" lon="3.64535">
        <ele>1246.01</ele>
        <time>2017-10-07T12:48:33Z</time>
      </trkpt>
      <trkpt lat="44.58754" lon="3.64528">
        <ele>1244.08</ele>
        <time>2017-10-07T12:48:47Z</time>
      </trkpt>
      <trkpt lat="44.58747" lon="3.64525">
        <ele>1242.16</ele>
        <time>2017-10-07T12:48:55Z</time>
      </trkpt>
      <trkpt lat="44.58733" lon="3.64524">
        <ele>1239.76</ele>
        <time>2017-10-07T12:49:10Z</time>
      </trkpt>
      <trkpt lat="44.58721" lon="3.64512">
        <ele>1236.87</ele>
        <time>2017-10-07T12:49:23Z</time>
      </trkpt>
      <trkpt lat="44.58713" lon="3.64494">
        <ele>1233.51</ele>
        <time>2017-10-07T12:49:38Z</time>
      </trkpt>
      <trkpt lat="44.58708" lon="3.64487">
        <ele>1233.03</ele>
        <time>2017-10-07T12:49:45Z</time>
      </trkpt>
      <trkpt lat="44.58706" lon="3.64481">
        <ele>1233.03</ele>
        <time>2017-10-07T12:49:49Z</time>
      </trkpt>
      <trkpt lat="44.58703" lon="3.64466">
        <ele>1232.55</ele>
        <time>2017-10-07T12:50:05Z</time>
      </trkpt>
      <trkpt lat="44.58702" lon="3.64447">
        <ele>1228.22</ele>
        <time>2017-10-07T12:50:19Z</time>
      </trkpt>
      <trkpt lat="44.587" lon="3.64443">
        <ele>1229.18</ele>
        <time>2017-10-07T12:50:23Z</time>
      </trkpt>
      <trkpt lat="44.58692" lon="3.64422">
        <ele>1227.26</ele>
        <time>2017-10-07T12:50:37Z</time>
      </trkpt>
      <trkpt lat="44.58676" lon="3.64405">
        <ele>1225.82</ele>
        <time>2017-10-07T12:50:55Z</time>
      </trkpt>
      <trkpt lat="44.58661" lon="3.64395">
        <ele>1224.38</ele>
        <time>2017-10-07T12:51:12Z</time>
      </trkpt>
      <trkpt lat="44.58644" lon="3.64387">
        <ele>1223.42</ele>
        <time>2017-10-07T12:51:29Z</time>
      </trkpt>
      <trkpt lat="44.58638" lon="3.64385">
        <ele>1223.42</ele>
        <time>2017-10-07T12:51:45Z</time>
      </trkpt>
      <trkpt lat="44.58636" lon="3.64386">
        <ele>1223.42</ele>
        <time>2017-10-07T12:51:47Z</time>
      </trkpt>
      <trkpt lat="44.58619" lon="3.64385">
        <ele>1222.45</ele>
        <time>2017-10-07T12:52:04Z</time>
      </trkpt>
      <trkpt lat="44.58613" lon="3.64377">
        <ele>1222.45</ele>
        <time>2017-10-07T12:52:13Z</time>
      </trkpt>
      <trkpt lat="44.58612" lon="3.64373">
        <ele>1223.9</ele>
        <time>2017-10-07T12:52:16Z</time>
      </trkpt>
      <trkpt lat="44.5861" lon="3.64372">
        <ele>1223.9</ele>
        <time>2017-10-07T12:52:34Z</time>
      </trkpt>
      <trkpt lat="44.5861" lon="3.64372">
        <ele>1222.45</ele>
        <time>2017-10-07T12:52:37Z</time>
      </trkpt>
      <trkpt lat="44.58606" lon="3.64366">
        <ele>1222.45</ele>
        <time>2017-10-07T12:52:53Z</time>
      </trkpt>
      <trkpt lat="44.58606" lon="3.64366">
        <ele>1223.9</ele>
        <time>2017-10-07T12:53:23Z</time>
      </trkpt>
      <trkpt lat="44.58606" lon="3.64364">
        <ele>1223.42</ele>
        <time>2017-10-07T12:53:50Z</time>
      </trkpt>
      <trkpt lat="44.58605" lon="3.64362">
        <ele>1223.42</ele>
        <time>2017-10-07T12:54:12Z</time>
      </trkpt>
      <trkpt lat="44.58598" lon="3.64358">
        <ele>1223.42</ele>
        <time>2017-10-07T12:54:27Z</time>
      </trkpt>
      <trkpt lat="44.58582" lon="3.64355">
        <ele>1223.42</ele>
        <time>2017-10-07T12:54:42Z</time>
      </trkpt>
      <trkpt lat="44.58566" lon="3.64343">
        <ele>1223.42</ele>
        <time>2017-10-07T12:55:00Z</time>
      </trkpt>
      <trkpt lat="44.58562" lon="3.64337">
        <ele>1221.97</ele>
        <time>2017-10-07T12:55:05Z</time>
      </trkpt>
      <trkpt lat="44.58553" lon="3.64314">
        <ele>1222.45</ele>
        <time>2017-10-07T12:55:22Z</time>
      </trkpt>
      <trkpt lat="44.58553" lon="3.64291">
        <ele>1222.45</ele>
        <time>2017-10-07T12:55:36Z</time>
      </trkpt>
      <trkpt lat="44.58555" lon="3.6428">
        <ele>1221.97</ele>
        <time>2017-10-07T12:55:43Z</time>
      </trkpt>
      <trkpt lat="44.58559" lon="3.64257">
        <ele>1222.45</ele>
        <time>2017-10-07T12:55:58Z</time>
      </trkpt>
      <trkpt lat="44.58563" lon="3.64242">
        <ele>1222.45</ele>
        <time>2017-10-07T12:56:12Z</time>
      </trkpt>
      <trkpt lat="44.58568" lon="3.64218">
        <ele>1222.45</ele>
        <time>2017-10-07T12:56:31Z</time>
      </trkpt>
      <trkpt lat="44.58574" lon="3.6419">
        <ele>1220.05</ele>
        <time>2017-10-07T12:56:49Z</time>
      </trkpt>
      <trkpt lat="44.58576" lon="3.64166">
        <ele>1219.57</ele>
        <time>2017-10-07T12:57:05Z</time>
      </trkpt>
      <trkpt lat="44.58577" lon="3.64152">
        <ele>1217.17</ele>
        <time>2017-10-07T12:57:15Z</time>
      </trkpt>
      <trkpt lat="44.58576" lon="3.64145">
        <ele>1217.17</ele>
        <time>2017-10-07T12:57:20Z</time>
      </trkpt>
      <trkpt lat="44.58577" lon="3.64141">
        <ele>1217.17</ele>
        <time>2017-10-07T12:57:24Z</time>
      </trkpt>
      <trkpt lat="44.58575" lon="3.64124">
        <ele>1215.24</ele>
        <time>2017-10-07T12:57:39Z</time>
      </trkpt>
      <trkpt lat="44.5857" lon="3.64109">
        <ele>1213.8</ele>
        <time>2017-10-07T12:57:51Z</time>
      </trkpt>
      <trkpt lat="44.58563" lon="3.64099">
        <ele>1211.88</ele>
        <time>2017-10-07T12:58:03Z</time>
      </trkpt>
      <trkpt lat="44.58555" lon="3.64097">
        <ele>1210.44</ele>
        <time>2017-10-07T12:58:10Z</time>
      </trkpt>
      <trkpt lat="44.58546" lon="3.64091">
        <ele>1209</ele>
        <time>2017-10-07T12:58:24Z</time>
      </trkpt>
      <trkpt lat="44.58536" lon="3.64095">
        <ele>1207.07</ele>
        <time>2017-10-07T12:58:34Z</time>
      </trkpt>
      <trkpt lat="44.5852" lon="3.64097">
        <ele>1205.15</ele>
        <time>2017-10-07T12:58:51Z</time>
      </trkpt>
      <trkpt lat="44.58507" lon="3.64087">
        <ele>1203.71</ele>
        <time>2017-10-07T12:59:06Z</time>
      </trkpt>
      <trkpt lat="44.58506" lon="3.64083">
        <ele>1203.23</ele>
        <time>2017-10-07T12:59:09Z</time>
      </trkpt>
      <trkpt lat="44.58509" lon="3.64061">
        <ele>1203.23</ele>
        <time>2017-10-07T12:59:26Z</time>
      </trkpt>
      <trkpt lat="44.58506" lon="3.64055">
        <ele>1204.19</ele>
        <time>2017-10-07T12:59:42Z</time>
      </trkpt>
      <trkpt lat="44.58506" lon="3.64055">
        <ele>1204.19</ele>
        <time>2017-10-07T12:59:43Z</time>
      </trkpt>
      <trkpt lat="44.58504" lon="3.64056">
        <ele>1204.19</ele>
        <time>2017-10-07T13:00:02Z</time>
      </trkpt>
      <trkpt lat="44.58504" lon="3.64053">
        <ele>1204.19</ele>
        <time>2017-10-07T13:00:09Z</time>
      </trkpt>
      <trkpt lat="44.58503" lon="3.64037">
        <ele>1204.19</ele>
        <time>2017-10-07T13:00:23Z</time>
      </trkpt>
      <trkpt lat="44.58502" lon="3.64038">
        <ele>1204.19</ele>
        <time>2017-10-07T13:00:43Z</time>
      </trkpt>
      <trkpt lat="44.58497" lon="3.6404">
        <ele>1202.75</ele>
        <time>2017-10-07T13:01:03Z</time>
      </trkpt>
      <trkpt lat="44.58485" lon="3.64044">
        <ele>1201.79</ele>
        <time>2017-10-07T13:01:21Z</time>
      </trkpt>
      <trkpt lat="44.58484" lon="3.64041">
        <ele>1201.79</ele>
        <time>2017-10-07T13:01:41Z</time>
      </trkpt>
      <trkpt lat="44.58484" lon="3.64038">
        <ele>1201.79</ele>
        <time>2017-10-07T13:02:03Z</time>
      </trkpt>
      <trkpt lat="44.58482" lon="3.64035">
        <ele>1201.79</ele>
        <time>2017-10-07T13:02:21Z</time>
      </trkpt>
      <trkpt lat="44.5848" lon="3.64039">
        <ele>1201.3</ele>
        <time>2017-10-07T13:02:52Z</time>
      </trkpt>
      <trkpt lat="44.5848" lon="3.64036">
        <ele>1201.3</ele>
        <time>2017-10-07T13:02:59Z</time>
      </trkpt>
      <trkpt lat="44.58468" lon="3.64023">
        <ele>1199.86</ele>
        <time>2017-10-07T13:03:13Z</time>
      </trkpt>
      <trkpt lat="44.58456" lon="3.64017">
        <ele>1198.9</ele>
        <time>2017-10-07T13:03:26Z</time>
      </trkpt>
      <trkpt lat="44.5845" lon="3.64016">
        <ele>1198.9</ele>
        <time>2017-10-07T13:03:30Z</time>
      </trkpt>
      <trkpt lat="44.58448" lon="3.64016">
        <ele>1198.9</ele>
        <time>2017-10-07T13:03:31Z</time>
      </trkpt>
      <trkpt lat="44.58447" lon="3.64015">
        <ele>1198.9</ele>
        <time>2017-10-07T13:03:32Z</time>
      </trkpt>
      <trkpt lat="44.58435" lon="3.64009">
        <ele>1198.42</ele>
        <time>2017-10-07T13:03:43Z</time>
      </trkpt>
      <trkpt lat="44.58433" lon="3.64007">
        <ele>1198.42</ele>
        <time>2017-10-07T13:03:46Z</time>
      </trkpt>
      <trkpt lat="44.58432" lon="3.64007">
        <ele>1198.42</ele>
        <time>2017-10-07T13:03:47Z</time>
      </trkpt>
      <trkpt lat="44.58431" lon="3.64007">
        <ele>1198.42</ele>
        <time>2017-10-07T13:03:48Z</time>
      </trkpt>
      <trkpt lat="44.58427" lon="3.64006">
        <ele>1197.94</ele>
        <time>2017-10-07T13:03:50Z</time>
      </trkpt>
      <trkpt lat="44.58427" lon="3.64005">
        <ele>1197.94</ele>
        <time>2017-10-07T13:03:51Z</time>
      </trkpt>
      <trkpt lat="44.58426" lon="3.64004">
        <ele>1197.94</ele>
        <time>2017-10-07T13:03:52Z</time>
      </trkpt>
      <trkpt lat="44.58419" lon="3.63994">
        <ele>1199.38</ele>
        <time>2017-10-07T13:04:02Z</time>
      </trkpt>
      <trkpt lat="44.58411" lon="3.63978">
        <ele>1199.38</ele>
        <time>2017-10-07T13:04:19Z</time>
      </trkpt>
    </trkseg>
  </trk>
</gpx>